<?xml version="1.0" encoding="UTF-8" standalone="no" ?><gpx xmlns="http://www.topografix.com/GPX/1/1" xmlns:gpxx="http://www.garmin.com/xmlschemas/GpxExtensions/v3" xmlns:wptx1="http://www.garmin.com/xmlschemas/WaypointExtension/v1" xmlns:gpxtpx="http://www.garmin.com/xmlschemas/TrackPointExtension/v1" creator="eTrex 20" version="1.1" xmlns:xsi="http://www.w3.org/2001/XMLSchema-instance" xsi:schemaLocation="http://www.topografix.com/GPX/1/1 http://www.topografix.com/GPX/1/1/gpx.xsd http://www.garmin.com/xmlschemas/GpxExtensions/v3 http://www8.garmin.com/xmlschemas/GpxExtensionsv3.xsd http://www.garmin.com/xmlschemas/WaypointExtension/v1 http://www8.garmin.com/xmlschemas/WaypointExtensionv1.xsd http://www.garmin.com/xmlschemas/TrackPointExtension/v1 http://www.garmin.com/xmlschemas/TrackPointExtensionv1.xsd"><metadata><link href="http://www.garmin.com"><text>Garmin International</text></link><time>2015-04-19T09:44:43Z</time></metadata><trk><name>2015-04-19 11:44:40</name><trkseg><trkpt lat="46.5387991536" lon="6.7315292358"><ele>798.03</ele><time>2015-04-19T07:00:34Z</time></trkpt><trkpt lat="46.5388289932" lon="6.7315098736"><ele>800.44</ele><time>2015-04-19T07:00:45Z</time></trkpt><trkpt lat="46.5388159174" lon="6.7314501945"><ele>801.40</ele><time>2015-04-19T07:00:49Z</time></trkpt><trkpt lat="46.5386839025" lon="6.7313720752"><ele>801.88</ele><time>2015-04-19T07:01:01Z</time></trkpt><trkpt lat="46.5386706591" lon="6.7313781101"><ele>800.92</ele><time>2015-04-19T07:01:33Z</time></trkpt><trkpt lat="46.5387057792" lon="6.7314687185"><ele>802.84</ele><time>2015-04-19T07:01:42Z</time></trkpt><trkpt lat="46.5387465991" lon="6.7314213607"><ele>803.32</ele><time>2015-04-19T07:01:50Z</time></trkpt><trkpt lat="46.5387463477" lon="6.7313219514"><ele>803.32</ele><time>2015-04-19T07:01:55Z</time></trkpt><trkpt lat="46.5387352835" lon="6.7313166708"><ele>802.84</ele><time>2015-04-19T07:02:00Z</time></trkpt><trkpt lat="46.5387228783" lon="6.7313598376"><ele>802.84</ele><time>2015-04-19T07:02:02Z</time></trkpt><trkpt lat="46.5387192741" lon="6.7313812114"><ele>804.76</ele><time>2015-04-19T07:02:19Z</time></trkpt><trkpt lat="46.5385796316" lon="6.7314522900"><ele>802.36</ele><time>2015-04-19T07:02:57Z</time></trkpt><trkpt lat="46.5384969860" lon="6.7314532958"><ele>801.88</ele><time>2015-04-19T07:02:59Z</time></trkpt><trkpt lat="46.5383688267" lon="6.7317400407"><ele>800.44</ele><time>2015-04-19T07:03:06Z</time></trkpt><trkpt lat="46.5385155100" lon="6.7317911703"><ele>801.40</ele><time>2015-04-19T07:03:10Z</time></trkpt><trkpt lat="46.5389341861" lon="6.7319528572"><ele>804.76</ele><time>2015-04-19T07:03:25Z</time></trkpt><trkpt lat="46.5393742360" lon="6.7322569527"><ele>808.61</ele><time>2015-04-19T07:03:43Z</time></trkpt><trkpt lat="46.5397650842" lon="6.7324998602"><ele>811.01</ele><time>2015-04-19T07:03:59Z</time></trkpt><trkpt lat="46.5402373206" lon="6.7328189593"><ele>812.93</ele><time>2015-04-19T07:04:19Z</time></trkpt><trkpt lat="46.5406137519" lon="6.7334084585"><ele>816.78</ele><time>2015-04-19T07:04:39Z</time></trkpt><trkpt lat="46.5408522170" lon="6.7341172323"><ele>819.66</ele><time>2015-04-19T07:04:58Z</time></trkpt><trkpt lat="46.5407580882" lon="6.7342095170"><ele>819.66</ele><time>2015-04-19T07:05:02Z</time></trkpt><trkpt lat="46.5400804952" lon="6.7345369142"><ele>814.85</ele><time>2015-04-19T07:05:16Z</time></trkpt><trkpt lat="46.5400124341" lon="6.7345894687"><ele>813.89</ele><time>2015-04-19T07:05:17Z</time></trkpt><trkpt lat="46.5396150481" lon="6.7350621242"><ele>808.13</ele><time>2015-04-19T07:05:24Z</time></trkpt><trkpt lat="46.5396150481" lon="6.7354601808"><ele>806.68</ele><time>2015-04-19T07:05:30Z</time></trkpt><trkpt lat="46.5401776414" lon="6.7364653386"><ele>806.20</ele><time>2015-04-19T07:05:48Z</time></trkpt><trkpt lat="46.5408885106" lon="6.7376098875"><ele>802.84</ele><time>2015-04-19T07:06:06Z</time></trkpt><trkpt lat="46.5417558700" lon="6.7387883831"><ele>799.95</ele><time>2015-04-19T07:06:27Z</time></trkpt><trkpt lat="46.5419973526" lon="6.7392493039"><ele>799.95</ele><time>2015-04-19T07:06:34Z</time></trkpt><trkpt lat="46.5420697723" lon="6.7398454249"><ele>803.32</ele><time>2015-04-19T07:06:46Z</time></trkpt><trkpt lat="46.5421872027" lon="6.7406024784"><ele>807.16</ele><time>2015-04-19T07:07:05Z</time></trkpt><trkpt lat="46.5423631389" lon="6.7412135191"><ele>808.13</ele><time>2015-04-19T07:07:19Z</time></trkpt><trkpt lat="46.5425112471" lon="6.7416065466"><ele>806.68</ele><time>2015-04-19T07:07:25Z</time></trkpt><trkpt lat="46.5432025865" lon="6.7429292109"><ele>801.88</ele><time>2015-04-19T07:07:44Z</time></trkpt><trkpt lat="46.5438210871" lon="6.7440150026"><ele>794.67</ele><time>2015-04-19T07:07:55Z</time></trkpt><trkpt lat="46.5444022045" lon="6.7447865568"><ele>791.30</ele><time>2015-04-19T07:08:04Z</time></trkpt><trkpt lat="46.5446171165" lon="6.7451989464"><ele>789.86</ele><time>2015-04-19T07:08:09Z</time></trkpt><trkpt lat="46.5445426852" lon="6.7454907205"><ele>789.86</ele><time>2015-04-19T07:08:16Z</time></trkpt><trkpt lat="46.5442125220" lon="6.7454593722"><ele>785.53</ele><time>2015-04-19T07:08:23Z</time></trkpt><trkpt lat="46.5439978614" lon="6.7453580350"><ele>784.09</ele><time>2015-04-19T07:08:29Z</time></trkpt><trkpt lat="46.5439533535" lon="6.7453355715"><ele>784.57</ele><time>2015-04-19T07:08:31Z</time></trkpt><trkpt lat="46.5437554568" lon="6.7454768065"><ele>788.90</ele><time>2015-04-19T07:08:43Z</time></trkpt><trkpt lat="46.5435098670" lon="6.7458185367"><ele>795.15</ele><time>2015-04-19T07:08:59Z</time></trkpt><trkpt lat="46.5433447435" lon="6.7459117435"><ele>795.15</ele><time>2015-04-19T07:09:12Z</time></trkpt><trkpt lat="46.5433242917" lon="6.7459374759"><ele>795.63</ele><time>2015-04-19T07:09:24Z</time></trkpt><trkpt lat="46.5433085337" lon="6.7459735181"><ele>794.67</ele><time>2015-04-19T07:09:33Z</time></trkpt><trkpt lat="46.5432314202" lon="6.7460455187"><ele>794.67</ele><time>2015-04-19T07:09:39Z</time></trkpt><trkpt lat="46.5430352837" lon="6.7461612727"><ele>791.30</ele><time>2015-04-19T07:09:45Z</time></trkpt><trkpt lat="46.5424690023" lon="6.7457944807"><ele>782.17</ele><time>2015-04-19T07:09:57Z</time></trkpt><trkpt lat="46.5422627237" lon="6.7455908004"><ele>779.77</ele><time>2015-04-19T07:10:04Z</time></trkpt><trkpt lat="46.5422362369" lon="6.7455545906"><ele>780.25</ele><time>2015-04-19T07:10:16Z</time></trkpt><trkpt lat="46.5422096662" lon="6.7455239967"><ele>780.73</ele><time>2015-04-19T07:10:30Z</time></trkpt><trkpt lat="46.5421955008" lon="6.7455139384"><ele>780.73</ele><time>2015-04-19T07:10:35Z</time></trkpt><trkpt lat="46.5421436168" lon="6.7454584502"><ele>780.25</ele><time>2015-04-19T07:10:40Z</time></trkpt><trkpt lat="46.5419794153" lon="6.7452879623"><ele>778.81</ele><time>2015-04-19T07:10:47Z</time></trkpt><trkpt lat="46.5417388547" lon="6.7455647327"><ele>773.52</ele><time>2015-04-19T07:10:54Z</time></trkpt><trkpt lat="46.5415253676" lon="6.7457940616"><ele>769.67</ele><time>2015-04-19T07:11:00Z</time></trkpt><trkpt lat="46.5413624234" lon="6.7457333766"><ele>768.71</ele><time>2015-04-19T07:11:04Z</time></trkpt><trkpt lat="46.5411383752" lon="6.7458317801"><ele>766.79</ele><time>2015-04-19T07:11:14Z</time></trkpt><trkpt lat="46.5410619322" lon="6.7459139228"><ele>766.31</ele><time>2015-04-19T07:11:39Z</time></trkpt><trkpt lat="46.5410802886" lon="6.7463447526"><ele>766.79</ele><time>2015-04-19T07:11:48Z</time></trkpt><trkpt lat="46.5412900876" lon="6.7476616334"><ele>764.39</ele><time>2015-04-19T07:12:05Z</time></trkpt><trkpt lat="46.5413954481" lon="6.7482570838"><ele>762.46</ele><time>2015-04-19T07:12:12Z</time></trkpt><trkpt lat="46.5413217712" lon="6.7484796233"><ele>761.50</ele><time>2015-04-19T07:12:17Z</time></trkpt><trkpt lat="46.5412500221" lon="6.7485171743"><ele>760.54</ele><time>2015-04-19T07:12:19Z</time></trkpt><trkpt lat="46.5407249797" lon="6.7488982994"><ele>753.81</ele><time>2015-04-19T07:12:30Z</time></trkpt><trkpt lat="46.5405138396" lon="6.7492127884"><ele>750.45</ele><time>2015-04-19T07:12:35Z</time></trkpt><trkpt lat="46.5402488038" lon="6.7496644054"><ele>746.12</ele><time>2015-04-19T07:12:42Z</time></trkpt><trkpt lat="46.5400503203" lon="6.7499693390"><ele>741.79</ele><time>2015-04-19T07:12:47Z</time></trkpt><trkpt lat="46.5399110969" lon="6.7501643859"><ele>739.39</ele><time>2015-04-19T07:12:50Z</time></trkpt><trkpt lat="46.5396151319" lon="6.7500732746"><ele>737.47</ele><time>2015-04-19T07:12:57Z</time></trkpt><trkpt lat="46.5393505152" lon="6.7501245718"><ele>736.99</ele><time>2015-04-19T07:13:03Z</time></trkpt><trkpt lat="46.5392516088" lon="6.7502415832"><ele>736.99</ele><time>2015-04-19T07:13:06Z</time></trkpt><trkpt lat="46.5386928711" lon="6.7510200106"><ele>733.14</ele><time>2015-04-19T07:13:20Z</time></trkpt><trkpt lat="46.5383733530" lon="6.7514480744"><ele>730.26</ele><time>2015-04-19T07:13:27Z</time></trkpt><trkpt lat="46.5377386753" lon="6.7524810601"><ele>719.20</ele><time>2015-04-19T07:13:42Z</time></trkpt><trkpt lat="46.5376362484" lon="6.7526479438"><ele>716.80</ele><time>2015-04-19T07:13:45Z</time></trkpt><trkpt lat="46.5377270244" lon="6.7528463434"><ele>716.80</ele><time>2015-04-19T07:13:51Z</time></trkpt><trkpt lat="46.5381943993" lon="6.7533867247"><ele>719.20</ele><time>2015-04-19T07:14:04Z</time></trkpt><trkpt lat="46.5387619380" lon="6.7541730311"><ele>717.28</ele><time>2015-04-19T07:14:19Z</time></trkpt><trkpt lat="46.5389694739" lon="6.7543787230"><ele>715.84</ele><time>2015-04-19T07:14:23Z</time></trkpt><trkpt lat="46.5393869765" lon="6.7550226208"><ele>717.76</ele><time>2015-04-19T07:14:36Z</time></trkpt><trkpt lat="46.5398048982" lon="6.7554052547"><ele>721.61</ele><time>2015-04-19T07:14:51Z</time></trkpt><trkpt lat="46.5404305235" lon="6.7558548599"><ele>722.57</ele><time>2015-04-19T07:15:09Z</time></trkpt><trkpt lat="46.5411531273" lon="6.7565188743"><ele>722.57</ele><time>2015-04-19T07:15:27Z</time></trkpt><trkpt lat="46.5413445700" lon="6.7567208782"><ele>723.53</ele><time>2015-04-19T07:15:32Z</time></trkpt><trkpt lat="46.5414253715" lon="6.7567720916"><ele>724.49</ele><time>2015-04-19T07:15:34Z</time></trkpt><trkpt lat="46.5415801015" lon="6.7568276636"><ele>725.93</ele><time>2015-04-19T07:15:38Z</time></trkpt><trkpt lat="46.5421061497" lon="6.7571695615"><ele>728.82</ele><time>2015-04-19T07:15:54Z</time></trkpt><trkpt lat="46.5425964072" lon="6.7572577391"><ele>728.34</ele><time>2015-04-19T07:16:08Z</time></trkpt><trkpt lat="46.5428523067" lon="6.7571302503"><ele>729.78</ele><time>2015-04-19T07:16:18Z</time></trkpt><trkpt lat="46.5430043545" lon="6.7569821421"><ele>730.26</ele><time>2015-04-19T07:16:25Z</time></trkpt><trkpt lat="46.5435773414" lon="6.7570336070"><ele>730.26</ele><time>2015-04-19T07:16:39Z</time></trkpt><trkpt lat="46.5439912397" lon="6.7572046816"><ele>731.70</ele><time>2015-04-19T07:16:50Z</time></trkpt><trkpt lat="46.5443094168" lon="6.7574034166"><ele>737.47</ele><time>2015-04-19T07:17:04Z</time></trkpt><trkpt lat="46.5446965769" lon="6.7575969547"><ele>742.76</ele><time>2015-04-19T07:17:21Z</time></trkpt><trkpt lat="46.5452357847" lon="6.7575232778"><ele>742.28</ele><time>2015-04-19T07:17:39Z</time></trkpt><trkpt lat="46.5457042493" lon="6.7573577352"><ele>743.72</ele><time>2015-04-19T07:17:56Z</time></trkpt><trkpt lat="46.5460847877" lon="6.7575176619"><ele>746.60</ele><time>2015-04-19T07:18:12Z</time></trkpt><trkpt lat="46.5464159567" lon="6.7578816041"><ele>747.56</ele><time>2015-04-19T07:18:27Z</time></trkpt><trkpt lat="46.5468586050" lon="6.7578525189"><ele>748.52</ele><time>2015-04-19T07:18:41Z</time></trkpt><trkpt lat="46.5471718367" lon="6.7580914870"><ele>748.52</ele><time>2015-04-19T07:18:53Z</time></trkpt><trkpt lat="46.5472004190" lon="6.7581919022"><ele>748.04</ele><time>2015-04-19T07:19:04Z</time></trkpt><trkpt lat="46.5472098906" lon="6.7581855319"><ele>749.00</ele><time>2015-04-19T07:19:27Z</time></trkpt><trkpt lat="46.5472257324" lon="6.7582190596"><ele>749.00</ele><time>2015-04-19T07:19:46Z</time></trkpt><trkpt lat="46.5472196136" lon="6.7582027148"><ele>749.49</ele><time>2015-04-19T07:20:16Z</time></trkpt><trkpt lat="46.5472183563" lon="6.7582002003"><ele>749.00</ele><time>2015-04-19T07:20:35Z</time></trkpt><trkpt lat="46.5471996646" lon="6.7582199816"><ele>747.08</ele><time>2015-04-19T07:21:01Z</time></trkpt><trkpt lat="46.5472160932" lon="6.7582110129"><ele>746.60</ele><time>2015-04-19T07:21:26Z</time></trkpt><trkpt lat="46.5472296719" lon="6.7582511622"><ele>746.12</ele><time>2015-04-19T07:21:31Z</time></trkpt><trkpt lat="46.5475268103" lon="6.7585787270"><ele>747.08</ele><time>2015-04-19T07:21:43Z</time></trkpt><trkpt lat="46.5478337556" lon="6.7590220459"><ele>747.08</ele><time>2015-04-19T07:21:56Z</time></trkpt><trkpt lat="46.5482379310" lon="6.7599030677"><ele>740.35</ele><time>2015-04-19T07:22:09Z</time></trkpt><trkpt lat="46.5482914913" lon="6.7600585520"><ele>739.39</ele><time>2015-04-19T07:22:11Z</time></trkpt><trkpt lat="46.5483799204" lon="6.7602664232"><ele>736.99</ele><time>2015-04-19T07:22:14Z</time></trkpt><trkpt lat="46.5485922340" lon="6.7604952492"><ele>731.22</ele><time>2015-04-19T07:22:25Z</time></trkpt><trkpt lat="46.5486063156" lon="6.7605186347"><ele>730.74</ele><time>2015-04-19T07:22:27Z</time></trkpt><trkpt lat="46.5486163739" lon="6.7606214806"><ele>729.78</ele><time>2015-04-19T07:22:37Z</time></trkpt><trkpt lat="46.5486373287" lon="6.7607254162"><ele>732.18</ele><time>2015-04-19T07:22:48Z</time></trkpt><trkpt lat="46.5486632288" lon="6.7608720995"><ele>737.47</ele><time>2015-04-19T07:23:00Z</time></trkpt><trkpt lat="46.5487180464" lon="6.7610223033"><ele>742.76</ele><time>2015-04-19T07:23:13Z</time></trkpt><trkpt lat="46.5487623867" lon="6.7611471098"><ele>746.12</ele><time>2015-04-19T07:23:22Z</time></trkpt><trkpt lat="46.5487759653" lon="6.7613289133"><ele>748.52</ele><time>2015-04-19T07:23:37Z</time></trkpt><trkpt lat="46.5488091577" lon="6.7613606807"><ele>749.00</ele><time>2015-04-19T07:23:41Z</time></trkpt><trkpt lat="46.5488954075" lon="6.7613510415"><ele>749.97</ele><time>2015-04-19T07:23:46Z</time></trkpt><trkpt lat="46.5493514668" lon="6.7615988944"><ele>750.93</ele><time>2015-04-19T07:24:03Z</time></trkpt><trkpt lat="46.5497513674" lon="6.7619959451"><ele>753.33</ele><time>2015-04-19T07:24:21Z</time></trkpt><trkpt lat="46.5501117893" lon="6.7623442970"><ele>757.66</ele><time>2015-04-19T07:24:38Z</time></trkpt><trkpt lat="46.5504142921" lon="6.7627588660"><ele>761.50</ele><time>2015-04-19T07:24:57Z</time></trkpt><trkpt lat="46.5506312996" lon="6.7631284241"><ele>763.90</ele><time>2015-04-19T07:25:12Z</time></trkpt><trkpt lat="46.5509595349" lon="6.7635800410"><ele>765.83</ele><time>2015-04-19T07:25:32Z</time></trkpt><trkpt lat="46.5512105729" lon="6.7639031634"><ele>768.23</ele><time>2015-04-19T07:25:46Z</time></trkpt><trkpt lat="46.5515168477" lon="6.7642842047"><ele>771.60</ele><time>2015-04-19T07:26:04Z</time></trkpt><trkpt lat="46.5517533850" lon="6.7645440437"><ele>775.92</ele><time>2015-04-19T07:26:19Z</time></trkpt><trkpt lat="46.5520023275" lon="6.7648229096"><ele>778.81</ele><time>2015-04-19T07:26:33Z</time></trkpt><trkpt lat="46.5523840394" lon="6.7652592715"><ele>780.73</ele><time>2015-04-19T07:26:53Z</time></trkpt><trkpt lat="46.5526178107" lon="6.7658555601"><ele>783.13</ele><time>2015-04-19T07:27:11Z</time></trkpt><trkpt lat="46.5527665056" lon="6.7664091010"><ele>786.50</ele><time>2015-04-19T07:27:28Z</time></trkpt><trkpt lat="46.5530664101" lon="6.7668903060"><ele>787.46</ele><time>2015-04-19T07:27:46Z</time></trkpt><trkpt lat="46.5535340365" lon="6.7675820645"><ele>788.42</ele><time>2015-04-19T07:28:09Z</time></trkpt><trkpt lat="46.5539604239" lon="6.7682036664"><ele>789.86</ele><time>2015-04-19T07:28:27Z</time></trkpt><trkpt lat="46.5544279665" lon="6.7689447943"><ele>789.86</ele><time>2015-04-19T07:28:43Z</time></trkpt><trkpt lat="46.5545415413" lon="6.7691248376"><ele>789.86</ele><time>2015-04-19T07:28:47Z</time></trkpt><trkpt lat="46.5546218399" lon="6.7692895420"><ele>789.86</ele><time>2015-04-19T07:28:50Z</time></trkpt><trkpt lat="46.5546969417" lon="6.7694709264"><ele>788.90</ele><time>2015-04-19T07:28:53Z</time></trkpt><trkpt lat="46.5548403561" lon="6.7699023429"><ele>786.98</ele><time>2015-04-19T07:29:00Z</time></trkpt><trkpt lat="46.5548748057" lon="6.7700963002"><ele>786.98</ele><time>2015-04-19T07:29:03Z</time></trkpt><trkpt lat="46.5548858698" lon="6.7702209391"><ele>786.98</ele><time>2015-04-19T07:29:05Z</time></trkpt><trkpt lat="46.5550909750" lon="6.7709601391"><ele>790.82</ele><time>2015-04-19T07:29:20Z</time></trkpt><trkpt lat="46.5553591121" lon="6.7716416717"><ele>794.67</ele><time>2015-04-19T07:29:37Z</time></trkpt><trkpt lat="46.5555174462" lon="6.7723360285"><ele>796.59</ele><time>2015-04-19T07:29:52Z</time></trkpt><trkpt lat="46.5557191987" lon="6.7730562016"><ele>795.63</ele><time>2015-04-19T07:30:06Z</time></trkpt><trkpt lat="46.5558547340" lon="6.7734377459"><ele>794.19</ele><time>2015-04-19T07:30:12Z</time></trkpt><trkpt lat="46.5560180973" lon="6.7741285823"><ele>792.74</ele><time>2015-04-19T07:30:21Z</time></trkpt><trkpt lat="46.5562069416" lon="6.7748055886"><ele>793.22</ele><time>2015-04-19T07:30:31Z</time></trkpt><trkpt lat="46.5562428162" lon="6.7749174032"><ele>793.22</ele><time>2015-04-19T07:30:33Z</time></trkpt><trkpt lat="46.5565947723" lon="6.7756441142"><ele>794.67</ele><time>2015-04-19T07:30:49Z</time></trkpt><trkpt lat="46.5566887334" lon="6.7757540848"><ele>794.19</ele><time>2015-04-19T07:30:52Z</time></trkpt><trkpt lat="46.5572219063" lon="6.7764041852"><ele>794.67</ele><time>2015-04-19T07:31:08Z</time></trkpt><trkpt lat="46.5577017702" lon="6.7771340813"><ele>795.63</ele><time>2015-04-19T07:31:24Z</time></trkpt><trkpt lat="46.5577839129" lon="6.7772749811"><ele>796.11</ele><time>2015-04-19T07:31:27Z</time></trkpt><trkpt lat="46.5581950452" lon="6.7779746186"><ele>798.51</ele><time>2015-04-19T07:31:43Z</time></trkpt><trkpt lat="46.5582641121" lon="6.7783280835"><ele>800.44</ele><time>2015-04-19T07:31:53Z</time></trkpt><trkpt lat="46.5582721587" lon="6.7783427518"><ele>801.88</ele><time>2015-04-19T07:32:09Z</time></trkpt><trkpt lat="46.5582817141" lon="6.7783574201"><ele>801.88</ele><time>2015-04-19T07:32:26Z</time></trkpt><trkpt lat="46.5582657885" lon="6.7783972342"><ele>798.51</ele><time>2015-04-19T07:33:03Z</time></trkpt><trkpt lat="46.5582436603" lon="6.7783524748"><ele>803.32</ele><time>2015-04-19T07:33:34Z</time></trkpt><trkpt lat="46.5582289081" lon="6.7783733457"><ele>804.76</ele><time>2015-04-19T07:34:11Z</time></trkpt><trkpt lat="46.5582630225" lon="6.7783243116"><ele>808.13</ele><time>2015-04-19T07:34:29Z</time></trkpt><trkpt lat="46.5582690574" lon="6.7786111403"><ele>807.16</ele><time>2015-04-19T07:34:42Z</time></trkpt><trkpt lat="46.5583232045" lon="6.7793407012"><ele>800.44</ele><time>2015-04-19T07:34:51Z</time></trkpt><trkpt lat="46.5584258828" lon="6.7797281966"><ele>792.74</ele><time>2015-04-19T07:34:56Z</time></trkpt><trkpt lat="46.5585722309" lon="6.7798779812"><ele>789.86</ele><time>2015-04-19T07:35:00Z</time></trkpt><trkpt lat="46.5591035597" lon="6.7798084114"><ele>789.38</ele><time>2015-04-19T07:35:15Z</time></trkpt><trkpt lat="46.5595702641" lon="6.7798631452"><ele>791.78</ele><time>2015-04-19T07:35:29Z</time></trkpt><trkpt lat="46.5600597672" lon="6.7800027039"><ele>795.63</ele><time>2015-04-19T07:35:43Z</time></trkpt><trkpt lat="46.5604294091" lon="6.7801128421"><ele>798.03</ele><time>2015-04-19T07:35:53Z</time></trkpt><trkpt lat="46.5611679386" lon="6.7804517224"><ele>796.11</ele><time>2015-04-19T07:36:10Z</time></trkpt><trkpt lat="46.5618771315" lon="6.7808220349"><ele>794.19</ele><time>2015-04-19T07:36:24Z</time></trkpt><trkpt lat="46.5625397209" lon="6.7811033316"><ele>793.22</ele><time>2015-04-19T07:36:38Z</time></trkpt><trkpt lat="46.5627710614" lon="6.7810255475"><ele>793.71</ele><time>2015-04-19T07:36:44Z</time></trkpt><trkpt lat="46.5628223587" lon="6.7809248809"><ele>792.74</ele><time>2015-04-19T07:36:46Z</time></trkpt><trkpt lat="46.5628369432" lon="6.7804395687"><ele>790.82</ele><time>2015-04-19T07:36:54Z</time></trkpt><trkpt lat="46.5624797903" lon="6.7800938152"><ele>790.34</ele><time>2015-04-19T07:37:06Z</time></trkpt><trkpt lat="46.5621871781" lon="6.7797857802"><ele>789.86</ele><time>2015-04-19T07:37:18Z</time></trkpt><trkpt lat="46.5621311869" lon="6.7796351574"><ele>790.34</ele><time>2015-04-19T07:37:22Z</time></trkpt><trkpt lat="46.5619379003" lon="6.7794101872"><ele>788.42</ele><time>2015-04-19T07:37:26Z</time></trkpt><trkpt lat="46.5616411809" lon="6.7790546268"><ele>787.94</ele><time>2015-04-19T07:37:33Z</time></trkpt><trkpt lat="46.5615678392" lon="6.7789497692"><ele>787.94</ele><time>2015-04-19T07:37:35Z</time></trkpt><trkpt lat="46.5614556056" lon="6.7788168322"><ele>787.94</ele><time>2015-04-19T07:37:38Z</time></trkpt><trkpt lat="46.5613823477" lon="6.7787385453"><ele>787.46</ele><time>2015-04-19T07:37:40Z</time></trkpt><trkpt lat="46.5612825193" lon="6.7786069494"><ele>786.98</ele><time>2015-04-19T07:37:43Z</time></trkpt><trkpt lat="46.5611861274" lon="6.7784751020"><ele>786.02</ele><time>2015-04-19T07:37:46Z</time></trkpt><trkpt lat="46.5607639309" lon="6.7778480519"><ele>791.30</ele><time>2015-04-19T07:38:01Z</time></trkpt><trkpt lat="46.5608300641" lon="6.7776687630"><ele>790.34</ele><time>2015-04-19T07:38:05Z</time></trkpt><trkpt lat="46.5610978659" lon="6.7774098460"><ele>795.63</ele><time>2015-04-19T07:38:17Z</time></trkpt><trkpt lat="46.5613563638" lon="6.7771117017"><ele>806.68</ele><time>2015-04-19T07:38:33Z</time></trkpt><trkpt lat="46.5616115090" lon="6.7768488452"><ele>810.53</ele><time>2015-04-19T07:38:47Z</time></trkpt><trkpt lat="46.5618356410" lon="6.7764174286"><ele>811.49</ele><time>2015-04-19T07:39:02Z</time></trkpt><trkpt lat="46.5621239785" lon="6.7762471084"><ele>812.45</ele><time>2015-04-19T07:39:14Z</time></trkpt><trkpt lat="46.5625295788" lon="6.7766645271"><ele>811.01</ele><time>2015-04-19T07:39:25Z</time></trkpt><trkpt lat="46.5633476526" lon="6.7775623128"><ele>802.84</ele><time>2015-04-19T07:39:39Z</time></trkpt><trkpt lat="46.5640097391" lon="6.7782878503"><ele>794.67</ele><time>2015-04-19T07:39:50Z</time></trkpt><trkpt lat="46.5640446078" lon="6.7783311848"><ele>794.19</ele><time>2015-04-19T07:39:51Z</time></trkpt><trkpt lat="46.5642212983" lon="6.7784922849"><ele>792.26</ele><time>2015-04-19T07:39:58Z</time></trkpt><trkpt lat="46.5642856713" lon="6.7783261556"><ele>792.26</ele><time>2015-04-19T07:40:09Z</time></trkpt><trkpt lat="46.5642705001" lon="6.7783095594"><ele>792.74</ele><time>2015-04-19T07:40:16Z</time></trkpt><trkpt lat="46.5643033572" lon="6.7782642972"><ele>793.71</ele><time>2015-04-19T07:40:32Z</time></trkpt><trkpt lat="46.5643582586" lon="6.7781159375"><ele>793.22</ele><time>2015-04-19T07:40:47Z</time></trkpt><trkpt lat="46.5643807221" lon="6.7780558392"><ele>793.22</ele><time>2015-04-19T07:41:03Z</time></trkpt><trkpt lat="46.5644025989" lon="6.7780203838"><ele>793.22</ele><time>2015-04-19T07:41:05Z</time></trkpt><trkpt lat="46.5644903574" lon="6.7778819986"><ele>793.22</ele><time>2015-04-19T07:41:12Z</time></trkpt><trkpt lat="46.5647635236" lon="6.7774574552"><ele>793.71</ele><time>2015-04-19T07:41:28Z</time></trkpt><trkpt lat="46.5649109613" lon="6.7771469057"><ele>793.71</ele><time>2015-04-19T07:41:40Z</time></trkpt><trkpt lat="46.5650596563" lon="6.7768068518"><ele>791.78</ele><time>2015-04-19T07:41:51Z</time></trkpt><trkpt lat="46.5652001370" lon="6.7762575019"><ele>788.90</ele><time>2015-04-19T07:42:06Z</time></trkpt><trkpt lat="46.5652217623" lon="6.7761751078"><ele>788.42</ele><time>2015-04-19T07:42:09Z</time></trkpt><trkpt lat="46.5653187409" lon="6.7761266604"><ele>789.38</ele><time>2015-04-19T07:42:19Z</time></trkpt><trkpt lat="46.5652996302" lon="6.7761046998"><ele>793.22</ele><time>2015-04-19T07:42:44Z</time></trkpt><trkpt lat="46.5650181659" lon="6.7761611100"><ele>790.82</ele><time>2015-04-19T07:42:56Z</time></trkpt><trkpt lat="46.5645548981" lon="6.7757073976"><ele>788.42</ele><time>2015-04-19T07:43:12Z</time></trkpt><trkpt lat="46.5642528143" lon="6.7753348220"><ele>788.42</ele><time>2015-04-19T07:43:23Z</time></trkpt><trkpt lat="46.5638608765" lon="6.7747786827"><ele>789.86</ele><time>2015-04-19T07:43:34Z</time></trkpt><trkpt lat="46.5632438008" lon="6.7739265785"><ele>789.38</ele><time>2015-04-19T07:43:50Z</time></trkpt><trkpt lat="46.5631390270" lon="6.7737938929"><ele>788.90</ele><time>2015-04-19T07:43:53Z</time></trkpt><trkpt lat="46.5628596582" lon="6.7734526657"><ele>787.46</ele><time>2015-04-19T07:44:01Z</time></trkpt><trkpt lat="46.5625035949" lon="6.7728396971"><ele>787.94</ele><time>2015-04-19T07:44:14Z</time></trkpt><trkpt lat="46.5624532197" lon="6.7727327440"><ele>787.46</ele><time>2015-04-19T07:44:16Z</time></trkpt><trkpt lat="46.5621409938" lon="6.7720938753"><ele>781.69</ele><time>2015-04-19T07:44:27Z</time></trkpt><trkpt lat="46.5620342921" lon="6.7717026081"><ele>778.81</ele><time>2015-04-19T07:44:32Z</time></trkpt><trkpt lat="46.5616372414" lon="6.7707785871"><ele>777.84</ele><time>2015-04-19T07:44:45Z</time></trkpt><trkpt lat="46.5616105869" lon="6.7707178183"><ele>778.32</ele><time>2015-04-19T07:44:46Z</time></trkpt><trkpt lat="46.5614114329" lon="6.7702944484"><ele>779.77</ele><time>2015-04-19T07:44:54Z</time></trkpt><trkpt lat="46.5611875523" lon="6.7696974892"><ele>781.69</ele><time>2015-04-19T07:45:06Z</time></trkpt><trkpt lat="46.5610764921" lon="6.7691891268"><ele>782.17</ele><time>2015-04-19T07:45:15Z</time></trkpt><trkpt lat="46.5610338282" lon="6.7690700199"><ele>782.17</ele><time>2015-04-19T07:45:17Z</time></trkpt><trkpt lat="46.5607836284" lon="6.7687931657"><ele>779.77</ele><time>2015-04-19T07:45:23Z</time></trkpt><trkpt lat="46.5601622779" lon="6.7684404552"><ele>776.40</ele><time>2015-04-19T07:45:34Z</time></trkpt><trkpt lat="46.5597467870" lon="6.7681610025"><ele>773.52</ele><time>2015-04-19T07:45:42Z</time></trkpt><trkpt lat="46.5593801625" lon="6.7679517064"><ele>771.11</ele><time>2015-04-19T07:45:49Z</time></trkpt><trkpt lat="46.5589272045" lon="6.7676809710"><ele>768.71</ele><time>2015-04-19T07:45:58Z</time></trkpt><trkpt lat="46.5588246938" lon="6.7672328744"><ele>764.87</ele><time>2015-04-19T07:46:06Z</time></trkpt><trkpt lat="46.5590857901" lon="6.7668856122"><ele>761.98</ele><time>2015-04-19T07:46:12Z</time></trkpt><trkpt lat="46.5591941681" lon="6.7666496616"><ele>761.50</ele><time>2015-04-19T07:46:15Z</time></trkpt><trkpt lat="46.5592630673" lon="6.7661969550"><ele>761.98</ele><time>2015-04-19T07:46:20Z</time></trkpt><trkpt lat="46.5591824334" lon="6.7657044344"><ele>762.94</ele><time>2015-04-19T07:46:26Z</time></trkpt><trkpt lat="46.5586910862" lon="6.7646568641"><ele>766.79</ele><time>2015-04-19T07:46:41Z</time></trkpt><trkpt lat="46.5585669503" lon="6.7643810995"><ele>767.75</ele><time>2015-04-19T07:46:45Z</time></trkpt><trkpt lat="46.5584806167" lon="6.7641875613"><ele>768.71</ele><time>2015-04-19T07:46:48Z</time></trkpt><trkpt lat="46.5577967372" lon="6.7630942259"><ele>774.00</ele><time>2015-04-19T07:47:07Z</time></trkpt><trkpt lat="46.5572672524" lon="6.7623139545"><ele>774.48</ele><time>2015-04-19T07:47:21Z</time></trkpt><trkpt lat="46.5570699424" lon="6.7620410398"><ele>774.96</ele><time>2015-04-19T07:47:26Z</time></trkpt><trkpt lat="46.5569477342" lon="6.7618771736"><ele>774.96</ele><time>2015-04-19T07:47:29Z</time></trkpt><trkpt lat="46.5565939341" lon="6.7613584176"><ele>774.48</ele><time>2015-04-19T07:47:38Z</time></trkpt><trkpt lat="46.5564910881" lon="6.7610696610"><ele>774.48</ele><time>2015-04-19T07:47:42Z</time></trkpt><trkpt lat="46.5564495139" lon="6.7607191298"><ele>773.04</ele><time>2015-04-19T07:47:47Z</time></trkpt><trkpt lat="46.5565241966" lon="6.7605646513"><ele>773.52</ele><time>2015-04-19T07:47:54Z</time></trkpt><trkpt lat="46.5567714628" lon="6.7603490688"><ele>776.40</ele><time>2015-04-19T07:48:07Z</time></trkpt><trkpt lat="46.5568969399" lon="6.7602332309"><ele>779.77</ele><time>2015-04-19T07:48:19Z</time></trkpt><trkpt lat="46.5569151286" lon="6.7602319736"><ele>779.29</ele><time>2015-04-19T07:48:33Z</time></trkpt><trkpt lat="46.5569111053" lon="6.7602517549"><ele>775.92</ele><time>2015-04-19T07:48:40Z</time></trkpt><trkpt lat="46.5568859596" lon="6.7602932453"><ele>774.96</ele><time>2015-04-19T07:48:44Z</time></trkpt><trkpt lat="46.5567422938" lon="6.7604558542"><ele>771.11</ele><time>2015-04-19T07:48:52Z</time></trkpt><trkpt lat="46.5566914994" lon="6.7604909744"><ele>771.11</ele><time>2015-04-19T07:48:54Z</time></trkpt><trkpt lat="46.5566168167" lon="6.7605302855"><ele>771.11</ele><time>2015-04-19T07:48:57Z</time></trkpt><trkpt lat="46.5565872286" lon="6.7607617099"><ele>770.15</ele><time>2015-04-19T07:49:04Z</time></trkpt><trkpt lat="46.5567231830" lon="6.7613671347"><ele>771.60</ele><time>2015-04-19T07:49:20Z</time></trkpt><trkpt lat="46.5567847062" lon="6.7615147401"><ele>773.04</ele><time>2015-04-19T07:49:26Z</time></trkpt><trkpt lat="46.5568940062" lon="6.7617123015"><ele>773.52</ele><time>2015-04-19T07:49:37Z</time></trkpt><trkpt lat="46.5569183975" lon="6.7617611680"><ele>776.88</ele><time>2015-04-19T07:49:53Z</time></trkpt><trkpt lat="46.5569056571" lon="6.7617829610"><ele>776.40</ele><time>2015-04-19T07:50:10Z</time></trkpt><trkpt lat="46.5568572097" lon="6.7617279757"><ele>777.36</ele><time>2015-04-19T07:50:23Z</time></trkpt><trkpt lat="46.5566210076" lon="6.7614018358"><ele>777.36</ele><time>2015-04-19T07:50:36Z</time></trkpt><trkpt lat="46.5564764198" lon="6.7607605364"><ele>774.00</ele><time>2015-04-19T07:50:50Z</time></trkpt><trkpt lat="46.5564788505" lon="6.7606456205"><ele>774.00</ele><time>2015-04-19T07:50:53Z</time></trkpt><trkpt lat="46.5565577243" lon="6.7605730332"><ele>773.52</ele><time>2015-04-19T07:50:57Z</time></trkpt><trkpt lat="46.5568879712" lon="6.7602397688"><ele>776.88</ele><time>2015-04-19T07:51:11Z</time></trkpt><trkpt lat="46.5571565274" lon="6.7596494313"><ele>778.32</ele><time>2015-04-19T07:51:25Z</time></trkpt><trkpt lat="46.5573941544" lon="6.7591449246"><ele>781.21</ele><time>2015-04-19T07:51:40Z</time></trkpt><trkpt lat="46.5576612856" lon="6.7591363750"><ele>783.61</ele><time>2015-04-19T07:51:53Z</time></trkpt><trkpt lat="46.5579742659" lon="6.7591107264"><ele>790.82</ele><time>2015-04-19T07:52:08Z</time></trkpt><trkpt lat="46.5582029242" lon="6.7591205332"><ele>795.63</ele><time>2015-04-19T07:52:20Z</time></trkpt><trkpt lat="46.5585080255" lon="6.7591345310"><ele>800.44</ele><time>2015-04-19T07:52:34Z</time></trkpt><trkpt lat="46.5587148070" lon="6.7591300886"><ele>802.84</ele><time>2015-04-19T07:52:47Z</time></trkpt><trkpt lat="46.5587619133" lon="6.7590901908"><ele>801.40</ele><time>2015-04-19T07:53:08Z</time></trkpt><trkpt lat="46.5587575547" lon="6.7590427492"><ele>801.88</ele><time>2015-04-19T07:53:53Z</time></trkpt><trkpt lat="46.5588044096" lon="6.7590748519"><ele>800.92</ele><time>2015-04-19T07:54:24Z</time></trkpt><trkpt lat="46.5590861253" lon="6.7590287514"><ele>801.88</ele><time>2015-04-19T07:54:37Z</time></trkpt><trkpt lat="46.5595985111" lon="6.7589136679"><ele>800.44</ele><time>2015-04-19T07:54:50Z</time></trkpt><trkpt lat="46.5599160176" lon="6.7588337883"><ele>798.99</ele><time>2015-04-19T07:55:00Z</time></trkpt><trkpt lat="46.5602585021" lon="6.7587793898"><ele>801.40</ele><time>2015-04-19T07:55:13Z</time></trkpt><trkpt lat="46.5605967958" lon="6.7587301042"><ele>807.16</ele><time>2015-04-19T07:55:23Z</time></trkpt><trkpt lat="46.5611800086" lon="6.7587969080"><ele>805.72</ele><time>2015-04-19T07:55:37Z</time></trkpt><trkpt lat="46.5618158597" lon="6.7589349579"><ele>802.84</ele><time>2015-04-19T07:55:51Z</time></trkpt><trkpt lat="46.5623849072" lon="6.7590989918"><ele>797.55</ele><time>2015-04-19T07:56:00Z</time></trkpt><trkpt lat="46.5626289882" lon="6.7590405699"><ele>797.07</ele><time>2015-04-19T07:56:04Z</time></trkpt><trkpt lat="46.5627566446" lon="6.7589414120"><ele>797.55</ele><time>2015-04-19T07:56:07Z</time></trkpt><trkpt lat="46.5628894977" lon="6.7587940581"><ele>797.55</ele><time>2015-04-19T07:56:11Z</time></trkpt><trkpt lat="46.5632534400" lon="6.7584465444"><ele>799.95</ele><time>2015-04-19T07:56:23Z</time></trkpt><trkpt lat="46.5636294521" lon="6.7588008475"><ele>798.03</ele><time>2015-04-19T07:56:34Z</time></trkpt><trkpt lat="46.5641285945" lon="6.7589784600"><ele>798.51</ele><time>2015-04-19T07:56:48Z</time></trkpt><trkpt lat="46.5647456702" lon="6.7589103151"><ele>800.44</ele><time>2015-04-19T07:57:05Z</time></trkpt><trkpt lat="46.5650160704" lon="6.7588342912"><ele>802.84</ele><time>2015-04-19T07:57:18Z</time></trkpt><trkpt lat="46.5652322397" lon="6.7590935435"><ele>803.32</ele><time>2015-04-19T07:57:27Z</time></trkpt><trkpt lat="46.5654854570" lon="6.7596786004"><ele>804.28</ele><time>2015-04-19T07:57:43Z</time></trkpt><trkpt lat="46.5656544361" lon="6.7600267008"><ele>807.16</ele><time>2015-04-19T07:57:58Z</time></trkpt><trkpt lat="46.5656791627" lon="6.7604217399"><ele>810.05</ele><time>2015-04-19T07:58:13Z</time></trkpt><trkpt lat="46.5656859521" lon="6.7604537588"><ele>811.97</ele><time>2015-04-19T07:58:26Z</time></trkpt><trkpt lat="46.5656805038" lon="6.7604096700"><ele>812.93</ele><time>2015-04-19T07:58:33Z</time></trkpt><trkpt lat="46.5656456351" lon="6.7601047363"><ele>812.93</ele><time>2015-04-19T07:58:44Z</time></trkpt><trkpt lat="46.5656354930" lon="6.7600007169"><ele>814.37</ele><time>2015-04-19T07:58:58Z</time></trkpt><trkpt lat="46.5656348225" lon="6.7599876411"><ele>814.85</ele><time>2015-04-19T07:58:59Z</time></trkpt><trkpt lat="46.5656565316" lon="6.7599681113"><ele>814.85</ele><time>2015-04-19T07:59:02Z</time></trkpt><trkpt lat="46.5657714475" lon="6.7600947618"><ele>815.82</ele><time>2015-04-19T07:59:16Z</time></trkpt><trkpt lat="46.5658234153" lon="6.7601921596"><ele>818.70</ele><time>2015-04-19T07:59:28Z</time></trkpt><trkpt lat="46.5659115929" lon="6.7602918204"><ele>821.58</ele><time>2015-04-19T07:59:41Z</time></trkpt><trkpt lat="46.5659544244" lon="6.7604894657"><ele>824.47</ele><time>2015-04-19T07:59:56Z</time></trkpt><trkpt lat="46.5659951605" lon="6.7606716044"><ele>823.51</ele><time>2015-04-19T08:00:07Z</time></trkpt><trkpt lat="46.5660604555" lon="6.7608627118"><ele>823.51</ele><time>2015-04-19T08:00:24Z</time></trkpt><trkpt lat="46.5661015268" lon="6.7609345447"><ele>823.51</ele><time>2015-04-19T08:00:40Z</time></trkpt><trkpt lat="46.5661634691" lon="6.7610774562"><ele>823.03</ele><time>2015-04-19T08:00:53Z</time></trkpt><trkpt lat="46.5662028641" lon="6.7611580063"><ele>825.91</ele><time>2015-04-19T08:01:06Z</time></trkpt><trkpt lat="46.5663116612" lon="6.7613411509"><ele>828.79</ele><time>2015-04-19T08:01:24Z</time></trkpt><trkpt lat="46.5663791355" lon="6.7615005746"><ele>831.20</ele><time>2015-04-19T08:01:38Z</time></trkpt><trkpt lat="46.5664289240" lon="6.7616717331"><ele>832.16</ele><time>2015-04-19T08:01:55Z</time></trkpt><trkpt lat="46.5664963145" lon="6.7618275527"><ele>833.60</ele><time>2015-04-19T08:02:11Z</time></trkpt><trkpt lat="46.5665283334" lon="6.7620086018"><ele>836.00</ele><time>2015-04-19T08:02:25Z</time></trkpt><trkpt lat="46.5665782895" lon="6.7621715460"><ele>837.45</ele><time>2015-04-19T08:02:39Z</time></trkpt><trkpt lat="46.5666346997" lon="6.7623416148"><ele>840.81</ele><time>2015-04-19T08:02:53Z</time></trkpt><trkpt lat="46.5666757710" lon="6.7625390086"><ele>841.77</ele><time>2015-04-19T08:03:06Z</time></trkpt><trkpt lat="46.5666812193" lon="6.7626089137"><ele>843.21</ele><time>2015-04-19T08:03:20Z</time></trkpt><trkpt lat="46.5666808840" lon="6.7626227438"><ele>843.21</ele><time>2015-04-19T08:03:21Z</time></trkpt><trkpt lat="46.5667497832" lon="6.7628708482"><ele>840.81</ele><time>2015-04-19T08:03:32Z</time></trkpt><trkpt lat="46.5668432415" lon="6.7632152606"><ele>847.06</ele><time>2015-04-19T08:03:49Z</time></trkpt><trkpt lat="46.5668629389" lon="6.7633388937"><ele>849.94</ele><time>2015-04-19T08:04:03Z</time></trkpt><trkpt lat="46.5668518748" lon="6.7633999139"><ele>850.42</ele><time>2015-04-19T08:04:34Z</time></trkpt><trkpt lat="46.5668211970" lon="6.7633403186"><ele>853.31</ele><time>2015-04-19T08:05:02Z</time></trkpt><trkpt lat="46.5668724943" lon="6.7634315137"><ele>855.71</ele><time>2015-04-19T08:05:33Z</time></trkpt><trkpt lat="46.5668469295" lon="6.7634167615"><ele>854.75</ele><time>2015-04-19T08:06:13Z</time></trkpt><trkpt lat="46.5668733325" lon="6.7633815575"><ele>854.27</ele><time>2015-04-19T08:06:33Z</time></trkpt><trkpt lat="46.5669056866" lon="6.7633720022"><ele>856.19</ele><time>2015-04-19T08:07:08Z</time></trkpt><trkpt lat="46.5669263899" lon="6.7634485289"><ele>861.00</ele><time>2015-04-19T08:07:39Z</time></trkpt><trkpt lat="46.5668810438" lon="6.7634490319"><ele>860.04</ele><time>2015-04-19T08:08:06Z</time></trkpt><trkpt lat="46.5668690577" lon="6.7634297535"><ele>860.04</ele><time>2015-04-19T08:08:26Z</time></trkpt><trkpt lat="46.5669315029" lon="6.7635533866"><ele>862.44</ele><time>2015-04-19T08:08:38Z</time></trkpt><trkpt lat="46.5670307446" lon="6.7638677079"><ele>861.00</ele><time>2015-04-19T08:08:51Z</time></trkpt><trkpt lat="46.5671314951" lon="6.7643053271"><ele>856.19</ele><time>2015-04-19T08:09:04Z</time></trkpt><trkpt lat="46.5672151465" lon="6.7645281181"><ele>858.59</ele><time>2015-04-19T08:09:12Z</time></trkpt><trkpt lat="46.5673000552" lon="6.7650166154"><ele>861.96</ele><time>2015-04-19T08:09:24Z</time></trkpt><trkpt lat="46.5673502628" lon="6.7651311122"><ele>862.44</ele><time>2015-04-19T08:09:27Z</time></trkpt><trkpt lat="46.5674956050" lon="6.7654500436"><ele>861.48</ele><time>2015-04-19T08:09:39Z</time></trkpt><trkpt lat="46.5675508417" lon="6.7655634508"><ele>859.56</ele><time>2015-04-19T08:09:43Z</time></trkpt><trkpt lat="46.5678105969" lon="6.7661494296"><ele>854.75</ele><time>2015-04-19T08:09:56Z</time></trkpt><trkpt lat="46.5678463876" lon="6.7662324104"><ele>854.75</ele><time>2015-04-19T08:09:58Z</time></trkpt><trkpt lat="46.5680653229" lon="6.7668668367"><ele>853.79</ele><time>2015-04-19T08:10:09Z</time></trkpt><trkpt lat="46.5681949910" lon="6.7672000173"><ele>850.90</ele><time>2015-04-19T08:10:18Z</time></trkpt><trkpt lat="46.5683505591" lon="6.7675729282"><ele>847.54</ele><time>2015-04-19T08:10:26Z</time></trkpt><trkpt lat="46.5683942288" lon="6.7676787917"><ele>846.10</ele><time>2015-04-19T08:10:28Z</time></trkpt><trkpt lat="46.5684667323" lon="6.7678815499"><ele>843.69</ele><time>2015-04-19T08:10:31Z</time></trkpt><trkpt lat="46.5686303470" lon="6.7682865635"><ele>837.93</ele><time>2015-04-19T08:10:37Z</time></trkpt><trkpt lat="46.5687948000" lon="6.7687409464"><ele>832.16</ele><time>2015-04-19T08:10:44Z</time></trkpt><trkpt lat="46.5690497775" lon="6.7693869397"><ele>825.91</ele><time>2015-04-19T08:10:55Z</time></trkpt><trkpt lat="46.5691841394" lon="6.7696629558"><ele>822.55</ele><time>2015-04-19T08:11:01Z</time></trkpt><trkpt lat="46.5693563875" lon="6.7701591644"><ele>817.26</ele><time>2015-04-19T08:11:12Z</time></trkpt><trkpt lat="46.5694385301" lon="6.7704437301"><ele>814.37</ele><time>2015-04-19T08:11:17Z</time></trkpt><trkpt lat="46.5695325751" lon="6.7706026509"><ele>811.01</ele><time>2015-04-19T08:11:21Z</time></trkpt><trkpt lat="46.5697278734" lon="6.7708623223"><ele>805.24</ele><time>2015-04-19T08:11:27Z</time></trkpt><trkpt lat="46.5699349064" lon="6.7710535973"><ele>801.40</ele><time>2015-04-19T08:11:32Z</time></trkpt><trkpt lat="46.5700145345" lon="6.7711283639"><ele>799.47</ele><time>2015-04-19T08:11:34Z</time></trkpt><trkpt lat="46.5702566877" lon="6.7712659109"><ele>797.55</ele><time>2015-04-19T08:11:39Z</time></trkpt><trkpt lat="46.5706204623" lon="6.7714650650"><ele>795.15</ele><time>2015-04-19T08:11:47Z</time></trkpt><trkpt lat="46.5707206260" lon="6.7713682540"><ele>794.67</ele><time>2015-04-19T08:11:50Z</time></trkpt><trkpt lat="46.5707926266" lon="6.7710753065"><ele>794.67</ele><time>2015-04-19T08:11:58Z</time></trkpt><trkpt lat="46.5708098933" lon="6.7710086703"><ele>796.11</ele><time>2015-04-19T08:12:08Z</time></trkpt><trkpt lat="46.5707963984" lon="6.7710082512"><ele>797.55</ele><time>2015-04-19T08:12:23Z</time></trkpt><trkpt lat="46.5707838256" lon="6.7710042279"><ele>799.47</ele><time>2015-04-19T08:12:51Z</time></trkpt><trkpt lat="46.5707733482" lon="6.7710005399"><ele>800.44</ele><time>2015-04-19T08:13:09Z</time></trkpt><trkpt lat="46.5707735159" lon="6.7709924094"><ele>800.44</ele><time>2015-04-19T08:13:29Z</time></trkpt><trkpt lat="46.5707737673" lon="6.7709762324"><ele>800.44</ele><time>2015-04-19T08:13:41Z</time></trkpt><trkpt lat="46.5707844961" lon="6.7709213309"><ele>799.95</ele><time>2015-04-19T08:13:44Z</time></trkpt><trkpt lat="46.5708271600" lon="6.7706952710"><ele>798.51</ele><time>2015-04-19T08:13:50Z</time></trkpt><trkpt lat="46.5710914414" lon="6.7704771738"><ele>794.19</ele><time>2015-04-19T08:13:58Z</time></trkpt><trkpt lat="46.5712192655" lon="6.7705942690"><ele>792.26</ele><time>2015-04-19T08:14:01Z</time></trkpt><trkpt lat="46.5713426471" lon="6.7707290500"><ele>789.86</ele><time>2015-04-19T08:14:04Z</time></trkpt><trkpt lat="46.5715962835" lon="6.7707194947"><ele>786.50</ele><time>2015-04-19T08:14:12Z</time></trkpt><trkpt lat="46.5716083534" lon="6.7706894875"><ele>786.02</ele><time>2015-04-19T08:14:14Z</time></trkpt><trkpt lat="46.5716792643" lon="6.7705744877"><ele>789.86</ele><time>2015-04-19T08:14:27Z</time></trkpt><trkpt lat="46.5717074275" lon="6.7705687881"><ele>790.82</ele><time>2015-04-19T08:14:30Z</time></trkpt><trkpt lat="46.5718693659" lon="6.7708360031"><ele>789.86</ele><time>2015-04-19T08:14:40Z</time></trkpt><trkpt lat="46.5719435457" lon="6.7710474785"><ele>786.50</ele><time>2015-04-19T08:14:46Z</time></trkpt><trkpt lat="46.5720349085" lon="6.7713488080"><ele>783.13</ele><time>2015-04-19T08:14:56Z</time></trkpt><trkpt lat="46.5721167997" lon="6.7716749478"><ele>778.32</ele><time>2015-04-19T08:15:06Z</time></trkpt><trkpt lat="46.5721673425" lon="6.7718745209"><ele>776.88</ele><time>2015-04-19T08:15:15Z</time></trkpt><trkpt lat="46.5723193064" lon="6.7719650455"><ele>777.36</ele><time>2015-04-19T08:15:26Z</time></trkpt><trkpt lat="46.5723858587" lon="6.7720181029"><ele>776.88</ele><time>2015-04-19T08:15:31Z</time></trkpt><trkpt lat="46.5724545904" lon="6.7720491998"><ele>780.73</ele><time>2015-04-19T08:15:44Z</time></trkpt><trkpt lat="46.5725075640" lon="6.7720998265"><ele>775.92</ele><time>2015-04-19T08:15:57Z</time></trkpt><trkpt lat="46.5725373197" lon="6.7721771076"><ele>770.63</ele><time>2015-04-19T08:16:12Z</time></trkpt><trkpt lat="46.5725644771" lon="6.7722276505"><ele>771.60</ele><time>2015-04-19T08:16:23Z</time></trkpt><trkpt lat="46.5725808218" lon="6.7722967174"><ele>772.56</ele><time>2015-04-19T08:16:37Z</time></trkpt><trkpt lat="46.5725896228" lon="6.7723234557"><ele>772.08</ele><time>2015-04-19T08:16:41Z</time></trkpt><trkpt lat="46.5725791454" lon="6.7723778542"><ele>772.56</ele><time>2015-04-19T08:16:48Z</time></trkpt><trkpt lat="46.5725836717" lon="6.7724498548"><ele>773.52</ele><time>2015-04-19T08:16:56Z</time></trkpt><trkpt lat="46.5725093242" lon="6.7725010682"><ele>772.08</ele><time>2015-04-19T08:17:09Z</time></trkpt><trkpt lat="46.5724883694" lon="6.7726304848"><ele>774.96</ele><time>2015-04-19T08:17:22Z</time></trkpt><trkpt lat="46.5724806581" lon="6.7727465741"><ele>776.40</ele><time>2015-04-19T08:17:38Z</time></trkpt><trkpt lat="46.5724707674" lon="6.7727919202"><ele>778.81</ele><time>2015-04-19T08:17:55Z</time></trkpt><trkpt lat="46.5724582784" lon="6.7728039902"><ele>780.25</ele><time>2015-04-19T08:18:06Z</time></trkpt><trkpt lat="46.5724641457" lon="6.7728318181"><ele>780.73</ele><time>2015-04-19T08:18:19Z</time></trkpt><trkpt lat="46.5724558476" lon="6.7728847917"><ele>781.21</ele><time>2015-04-19T08:18:23Z</time></trkpt><trkpt lat="46.5724358987" lon="6.7729765736"><ele>781.21</ele><time>2015-04-19T08:18:27Z</time></trkpt><trkpt lat="46.5722763911" lon="6.7732867878"><ele>779.77</ele><time>2015-04-19T08:18:39Z</time></trkpt><trkpt lat="46.5720694419" lon="6.7735935654"><ele>777.36</ele><time>2015-04-19T08:18:50Z</time></trkpt><trkpt lat="46.5716634225" lon="6.7737363093"><ele>772.56</ele><time>2015-04-19T08:19:04Z</time></trkpt><trkpt lat="46.5713130590" lon="6.7738696653"><ele>770.63</ele><time>2015-04-19T08:19:18Z</time></trkpt><trkpt lat="46.5712513682" lon="6.7738440167"><ele>770.63</ele><time>2015-04-19T08:19:21Z</time></trkpt><trkpt lat="46.5711914375" lon="6.7738582660"><ele>769.67</ele><time>2015-04-19T08:19:25Z</time></trkpt><trkpt lat="46.5711548924" lon="6.7740999162"><ele>767.27</ele><time>2015-04-19T08:19:32Z</time></trkpt><trkpt lat="46.5711597539" lon="6.7743362859"><ele>763.90</ele><time>2015-04-19T08:19:39Z</time></trkpt><trkpt lat="46.5711324289" lon="6.7743978929"><ele>761.50</ele><time>2015-04-19T08:19:49Z</time></trkpt><trkpt lat="46.5711196046" lon="6.7743843980"><ele>759.10</ele><time>2015-04-19T08:20:02Z</time></trkpt><trkpt lat="46.5711230412" lon="6.7743944563"><ele>758.62</ele><time>2015-04-19T08:20:28Z</time></trkpt><trkpt lat="46.5710267331" lon="6.7742933705"><ele>759.58</ele><time>2015-04-19T08:20:35Z</time></trkpt><trkpt lat="46.5706753638" lon="6.7739950586"><ele>762.94</ele><time>2015-04-19T08:20:52Z</time></trkpt><trkpt lat="46.5703022014" lon="6.7736394983"><ele>766.79</ele><time>2015-04-19T08:21:11Z</time></trkpt><trkpt lat="46.5700027999" lon="6.7733542621"><ele>768.71</ele><time>2015-04-19T08:21:26Z</time></trkpt><trkpt lat="46.5695364308" lon="6.7728678603"><ele>769.19</ele><time>2015-04-19T08:21:46Z</time></trkpt><trkpt lat="46.5691211913" lon="6.7722600047"><ele>771.11</ele><time>2015-04-19T08:22:05Z</time></trkpt><trkpt lat="46.5687812213" lon="6.7717557494"><ele>773.52</ele><time>2015-04-19T08:22:21Z</time></trkpt><trkpt lat="46.5685431752" lon="6.7714294419"><ele>776.88</ele><time>2015-04-19T08:22:33Z</time></trkpt><trkpt lat="46.5683755372" lon="6.7711854447"><ele>780.73</ele><time>2015-04-19T08:22:43Z</time></trkpt><trkpt lat="46.5682081506" lon="6.7707336601"><ele>781.69</ele><time>2015-04-19T08:22:57Z</time></trkpt><trkpt lat="46.5680432785" lon="6.7703264672"><ele>785.53</ele><time>2015-04-19T08:23:11Z</time></trkpt><trkpt lat="46.5679036360" lon="6.7699491140"><ele>789.38</ele><time>2015-04-19T08:23:24Z</time></trkpt><trkpt lat="46.5677976888" lon="6.7694392428"><ele>785.05</ele><time>2015-04-19T08:23:38Z</time></trkpt><trkpt lat="46.5676541068" lon="6.7689475603"><ele>782.17</ele><time>2015-04-19T08:23:54Z</time></trkpt><trkpt lat="46.5676220041" lon="6.7688523419"><ele>782.17</ele><time>2015-04-19T08:23:58Z</time></trkpt><trkpt lat="46.5675381850" lon="6.7684501782"><ele>787.46</ele><time>2015-04-19T08:24:14Z</time></trkpt><trkpt lat="46.5674873069" lon="6.7680524569"><ele>792.74</ele><time>2015-04-19T08:24:28Z</time></trkpt><trkpt lat="46.5673557948" lon="6.7677156720"><ele>799.47</ele><time>2015-04-19T08:24:41Z</time></trkpt><trkpt lat="46.5671682917" lon="6.7673204653"><ele>806.20</ele><time>2015-04-19T08:24:56Z</time></trkpt><trkpt lat="46.5670225304" lon="6.7669081595"><ele>808.13</ele><time>2015-04-19T08:25:11Z</time></trkpt><trkpt lat="46.5669299942" lon="6.7666681856"><ele>810.05</ele><time>2015-04-19T08:25:19Z</time></trkpt><trkpt lat="46.5668643638" lon="6.7665183172"><ele>810.53</ele><time>2015-04-19T08:25:24Z</time></trkpt><trkpt lat="46.5666985698" lon="6.7660106253"><ele>812.45</ele><time>2015-04-19T08:25:39Z</time></trkpt><trkpt lat="46.5665112343" lon="6.7655831482"><ele>814.85</ele><time>2015-04-19T08:25:53Z</time></trkpt><trkpt lat="46.5663088951" lon="6.7650892027"><ele>816.78</ele><time>2015-04-19T08:26:09Z</time></trkpt><trkpt lat="46.5661752038" lon="6.7646649107"><ele>817.26</ele><time>2015-04-19T08:26:22Z</time></trkpt><trkpt lat="46.5660332981" lon="6.7641997989"><ele>816.78</ele><time>2015-04-19T08:26:36Z</time></trkpt><trkpt lat="46.5659338888" lon="6.7636429053"><ele>816.30</ele><time>2015-04-19T08:26:53Z</time></trkpt><trkpt lat="46.5658064000" lon="6.7630757857"><ele>814.85</ele><time>2015-04-19T08:27:11Z</time></trkpt><trkpt lat="46.5657104272" lon="6.7627488077"><ele>812.45</ele><time>2015-04-19T08:27:24Z</time></trkpt><trkpt lat="46.5656318888" lon="6.7622171436"><ele>812.93</ele><time>2015-04-19T08:27:39Z</time></trkpt><trkpt lat="46.5655697789" lon="6.7617123853"><ele>812.93</ele><time>2015-04-19T08:27:55Z</time></trkpt><trkpt lat="46.5655820165" lon="6.7610633746"><ele>812.93</ele><time>2015-04-19T08:28:08Z</time></trkpt><trkpt lat="46.5656711161" lon="6.7606467102"><ele>812.45</ele><time>2015-04-19T08:28:14Z</time></trkpt><trkpt lat="46.5656923223" lon="6.7603249289"><ele>811.97</ele><time>2015-04-19T08:28:18Z</time></trkpt><trkpt lat="46.5655913204" lon="6.7597837932"><ele>805.72</ele><time>2015-04-19T08:28:29Z</time></trkpt><trkpt lat="46.5653590579" lon="6.7594985571"><ele>803.80</ele><time>2015-04-19T08:28:39Z</time></trkpt><trkpt lat="46.5652436391" lon="6.7591347825"><ele>803.80</ele><time>2015-04-19T08:28:48Z</time></trkpt><trkpt lat="46.5652422141" lon="6.7589860875"><ele>804.76</ele><time>2015-04-19T08:28:56Z</time></trkpt><trkpt lat="46.5652227681" lon="6.7589884344"><ele>804.28</ele><time>2015-04-19T08:29:04Z</time></trkpt><trkpt lat="46.5651524439" lon="6.7589138355"><ele>804.28</ele><time>2015-04-19T08:29:08Z</time></trkpt><trkpt lat="46.5649724845" lon="6.7584987637"><ele>804.28</ele><time>2015-04-19T08:29:20Z</time></trkpt><trkpt lat="46.5647491906" lon="6.7579295486"><ele>802.84</ele><time>2015-04-19T08:29:34Z</time></trkpt><trkpt lat="46.5644367132" lon="6.7574352678"><ele>804.76</ele><time>2015-04-19T08:29:49Z</time></trkpt><trkpt lat="46.5642259922" lon="6.7569706589"><ele>804.76</ele><time>2015-04-19T08:30:01Z</time></trkpt><trkpt lat="46.5641404968" lon="6.7565757036"><ele>804.76</ele><time>2015-04-19T08:30:13Z</time></trkpt><trkpt lat="46.5640778001" lon="6.7563274316"><ele>807.64</ele><time>2015-04-19T08:30:24Z</time></trkpt><trkpt lat="46.5640444402" lon="6.7562359851"><ele>808.61</ele><time>2015-04-19T08:30:34Z</time></trkpt><trkpt lat="46.5640474577" lon="6.7561966740"><ele>808.61</ele><time>2015-04-19T08:30:44Z</time></trkpt><trkpt lat="46.5640573483" lon="6.7561752163"><ele>808.61</ele><time>2015-04-19T08:30:54Z</time></trkpt><trkpt lat="46.5640631318" lon="6.7560433690"><ele>808.61</ele><time>2015-04-19T08:31:07Z</time></trkpt><trkpt lat="46.5640571807" lon="6.7560043093"><ele>808.13</ele><time>2015-04-19T08:31:09Z</time></trkpt><trkpt lat="46.5640768781" lon="6.7558434606"><ele>808.13</ele><time>2015-04-19T08:31:15Z</time></trkpt><trkpt lat="46.5640902054" lon="6.7558057420"><ele>809.57</ele><time>2015-04-19T08:31:17Z</time></trkpt><trkpt lat="46.5640627965" lon="6.7556519341"><ele>811.01</ele><time>2015-04-19T08:31:23Z</time></trkpt><trkpt lat="46.5640609525" lon="6.7553079408"><ele>811.49</ele><time>2015-04-19T08:31:35Z</time></trkpt><trkpt lat="46.5640710946" lon="6.7550486047"><ele>813.89</ele><time>2015-04-19T08:31:44Z</time></trkpt><trkpt lat="46.5640768781" lon="6.7550025042"><ele>814.37</ele><time>2015-04-19T08:31:46Z</time></trkpt><trkpt lat="46.5640833322" lon="6.7549206968"><ele>816.30</ele><time>2015-04-19T08:31:50Z</time></trkpt><trkpt lat="46.5641059633" lon="6.7547766119"><ele>820.62</ele><time>2015-04-19T08:31:58Z</time></trkpt><trkpt lat="46.5641122498" lon="6.7547357921"><ele>821.58</ele><time>2015-04-19T08:32:00Z</time></trkpt><trkpt lat="46.5641513932" lon="6.7545890249"><ele>824.47</ele><time>2015-04-19T08:32:08Z</time></trkpt><trkpt lat="46.5642528143" lon="6.7542902101"><ele>827.83</ele><time>2015-04-19T08:32:22Z</time></trkpt><trkpt lat="46.5643851645" lon="6.7540883739"><ele>829.76</ele><time>2015-04-19T08:32:35Z</time></trkpt><trkpt lat="46.5645318478" lon="6.7539662495"><ele>832.64</ele><time>2015-04-19T08:32:44Z</time></trkpt><trkpt lat="46.5645629447" lon="6.7539520841"><ele>833.60</ele><time>2015-04-19T08:32:46Z</time></trkpt><trkpt lat="46.5646343585" lon="6.7538993619"><ele>835.52</ele><time>2015-04-19T08:32:50Z</time></trkpt><trkpt lat="46.5647479333" lon="6.7538257688"><ele>836.00</ele><time>2015-04-19T08:32:58Z</time></trkpt><trkpt lat="46.5648513660" lon="6.7537136190"><ele>835.52</ele><time>2015-04-19T08:33:05Z</time></trkpt><trkpt lat="46.5650114603" lon="6.7535419576"><ele>833.12</ele><time>2015-04-19T08:33:17Z</time></trkpt><trkpt lat="46.5651231073" lon="6.7533575557"><ele>834.08</ele><time>2015-04-19T08:33:30Z</time></trkpt><trkpt lat="46.5651655197" lon="6.7532573920"><ele>837.45</ele><time>2015-04-19T08:33:42Z</time></trkpt><trkpt lat="46.5652277134" lon="6.7531806137"><ele>837.45</ele><time>2015-04-19T08:33:54Z</time></trkpt><trkpt lat="46.5652823634" lon="6.7530944478"><ele>839.37</ele><time>2015-04-19T08:34:01Z</time></trkpt><trkpt lat="46.5653040726" lon="6.7530887481"><ele>838.89</ele><time>2015-04-19T08:34:03Z</time></trkpt><trkpt lat="46.5653618239" lon="6.7530342657"><ele>839.85</ele><time>2015-04-19T08:34:10Z</time></trkpt><trkpt lat="46.5654469002" lon="6.7529040948"><ele>839.85</ele><time>2015-04-19T08:34:19Z</time></trkpt><trkpt lat="46.5654688608" lon="6.7527909391"><ele>838.41</ele><time>2015-04-19T08:34:27Z</time></trkpt><trkpt lat="46.5654823557" lon="6.7527636979"><ele>837.93</ele><time>2015-04-19T08:34:29Z</time></trkpt><trkpt lat="46.5655194875" lon="6.7525596824"><ele>840.33</ele><time>2015-04-19T08:34:44Z</time></trkpt><trkpt lat="46.5655694436" lon="6.7523670662"><ele>842.73</ele><time>2015-04-19T08:34:56Z</time></trkpt><trkpt lat="46.5655567870" lon="6.7523175292"><ele>842.25</ele><time>2015-04-19T08:34:58Z</time></trkpt><trkpt lat="46.5655568708" lon="6.7522154376"><ele>844.18</ele><time>2015-04-19T08:35:11Z</time></trkpt><trkpt lat="46.5655462258" lon="6.7522134259"><ele>844.66</ele><time>2015-04-19T08:35:45Z</time></trkpt><trkpt lat="46.5655722097" lon="6.7521776352"><ele>842.25</ele><time>2015-04-19T08:36:15Z</time></trkpt><trkpt lat="46.5655453876" lon="6.7521835025"><ele>838.89</ele><time>2015-04-19T08:36:51Z</time></trkpt><trkpt lat="46.5655468125" lon="6.7521534115"><ele>837.93</ele><time>2015-04-19T08:37:04Z</time></trkpt><trkpt lat="46.5655810107" lon="6.7520252522"><ele>835.52</ele><time>2015-04-19T08:37:17Z</time></trkpt><trkpt lat="46.5655645821" lon="6.7519988492"><ele>832.16</ele><time>2015-04-19T08:37:28Z</time></trkpt><trkpt lat="46.5656773187" lon="6.7517214082"><ele>832.16</ele><time>2015-04-19T08:37:41Z</time></trkpt><trkpt lat="46.5657105949" lon="6.7513536941"><ele>829.76</ele><time>2015-04-19T08:37:53Z</time></trkpt><trkpt lat="46.5657104272" lon="6.7512453999"><ele>827.83</ele><time>2015-04-19T08:37:57Z</time></trkpt><trkpt lat="46.5658820886" lon="6.7510920111"><ele>824.95</ele><time>2015-04-19T08:38:05Z</time></trkpt><trkpt lat="46.5661260858" lon="6.7510698829"><ele>823.03</ele><time>2015-04-19T08:38:10Z</time></trkpt><trkpt lat="46.5664096456" lon="6.7509806994"><ele>823.99</ele><time>2015-04-19T08:38:20Z</time></trkpt><trkpt lat="46.5667039342" lon="6.7508678790"><ele>828.31</ele><time>2015-04-19T08:38:31Z</time></trkpt><trkpt lat="46.5668843966" lon="6.7505766079"><ele>825.43</ele><time>2015-04-19T08:38:40Z</time></trkpt><trkpt lat="46.5670734085" lon="6.7499457020"><ele>825.91</ele><time>2015-04-19T08:38:58Z</time></trkpt><trkpt lat="46.5672881529" lon="6.7494370043"><ele>824.95</ele><time>2015-04-19T08:39:14Z</time></trkpt><trkpt lat="46.5675152186" lon="6.7489878181"><ele>825.43</ele><time>2015-04-19T08:39:29Z</time></trkpt><trkpt lat="46.5677905641" lon="6.7486980557"><ele>828.31</ele><time>2015-04-19T08:39:43Z</time></trkpt><trkpt lat="46.5680734534" lon="6.7485785298"><ele>830.24</ele><time>2015-04-19T08:39:56Z</time></trkpt><trkpt lat="46.5681190509" lon="6.7485702317"><ele>830.24</ele><time>2015-04-19T08:39:59Z</time></trkpt><trkpt lat="46.5681858547" lon="6.7485465948"><ele>830.72</ele><time>2015-04-19T08:40:05Z</time></trkpt><trkpt lat="46.5682384092" lon="6.7484373786"><ele>830.24</ele><time>2015-04-19T08:40:18Z</time></trkpt><trkpt lat="46.5682329610" lon="6.7484371271"><ele>827.83</ele><time>2015-04-19T08:40:47Z</time></trkpt><trkpt lat="46.5682451986" lon="6.7484043539"><ele>831.20</ele><time>2015-04-19T08:41:02Z</time></trkpt><trkpt lat="46.5682905447" lon="6.7479237355"><ele>834.08</ele><time>2015-04-19T08:41:17Z</time></trkpt><trkpt lat="46.5684401616" lon="6.7473655846"><ele>839.37</ele><time>2015-04-19T08:41:33Z</time></trkpt><trkpt lat="46.5687192790" lon="6.7467963696"><ele>841.77</ele><time>2015-04-19T08:41:49Z</time></trkpt><trkpt lat="46.5687606018" lon="6.7466977984"><ele>841.77</ele><time>2015-04-19T08:41:51Z</time></trkpt><trkpt lat="46.5688192751" lon="6.7466020770"><ele>841.29</ele><time>2015-04-19T08:41:53Z</time></trkpt><trkpt lat="46.5690597519" lon="6.7464089580"><ele>841.77</ele><time>2015-04-19T08:41:59Z</time></trkpt><trkpt lat="46.5692076925" lon="6.7462276574"><ele>840.81</ele><time>2015-04-19T08:42:03Z</time></trkpt><trkpt lat="46.5695675276" lon="6.7453856114"><ele>836.48</ele><time>2015-04-19T08:42:16Z</time></trkpt><trkpt lat="46.5699250996" lon="6.7445355188"><ele>832.64</ele><time>2015-04-19T08:42:30Z</time></trkpt><trkpt lat="46.5699863713" lon="6.7443337664"><ele>831.68</ele><time>2015-04-19T08:42:33Z</time></trkpt><trkpt lat="46.5701530874" lon="6.7436746135"><ele>827.35</ele><time>2015-04-19T08:42:44Z</time></trkpt><trkpt lat="46.5701691806" lon="6.7435838375"><ele>826.87</ele><time>2015-04-19T08:42:47Z</time></trkpt><trkpt lat="46.5702114254" lon="6.7435040418"><ele>826.87</ele><time>2015-04-19T08:42:52Z</time></trkpt><trkpt lat="46.5702330507" lon="6.7434972525"><ele>826.87</ele><time>2015-04-19T08:42:54Z</time></trkpt><trkpt lat="46.5705310274" lon="6.7436581012"><ele>823.99</ele><time>2015-04-19T08:43:04Z</time></trkpt><trkpt lat="46.5708205383" lon="6.7439434212"><ele>822.55</ele><time>2015-04-19T08:43:11Z</time></trkpt><trkpt lat="46.5711259749" lon="6.7440093867"><ele>821.10</ele><time>2015-04-19T08:43:17Z</time></trkpt><trkpt lat="46.5712921880" lon="6.7443173379"><ele>815.82</ele><time>2015-04-19T08:43:23Z</time></trkpt><trkpt lat="46.5715405438" lon="6.7450876348"><ele>811.49</ele><time>2015-04-19T08:43:33Z</time></trkpt><trkpt lat="46.5715433937" lon="6.7451298796"><ele>812.93</ele><time>2015-04-19T08:43:41Z</time></trkpt><trkpt lat="46.5714403801" lon="6.7447998840"><ele>812.93</ele><time>2015-04-19T08:43:50Z</time></trkpt><trkpt lat="46.5713149030" lon="6.7443082016"><ele>812.93</ele><time>2015-04-19T08:44:02Z</time></trkpt><trkpt lat="46.5713625960" lon="6.7438659724"><ele>813.89</ele><time>2015-04-19T08:44:13Z</time></trkpt><trkpt lat="46.5713891666" lon="6.7438223865"><ele>813.89</ele><time>2015-04-19T08:44:14Z</time></trkpt><trkpt lat="46.5714528691" lon="6.7437331192"><ele>813.89</ele><time>2015-04-19T08:44:16Z</time></trkpt><trkpt lat="46.5715481713" lon="6.7435179558"><ele>813.89</ele><time>2015-04-19T08:44:20Z</time></trkpt><trkpt lat="46.5715667792" lon="6.7429927457"><ele>811.49</ele><time>2015-04-19T08:44:30Z</time></trkpt><trkpt lat="46.5714114625" lon="6.7424640153"><ele>810.05</ele><time>2015-04-19T08:44:40Z</time></trkpt><trkpt lat="46.5712755919" lon="6.7421621829"><ele>806.68</ele><time>2015-04-19T08:44:47Z</time></trkpt><trkpt lat="46.5711169224" lon="6.7417274974"><ele>806.68</ele><time>2015-04-19T08:44:59Z</time></trkpt><trkpt lat="46.5711116418" lon="6.7416218016"><ele>809.09</ele><time>2015-04-19T08:45:02Z</time></trkpt><trkpt lat="46.5712035913" lon="6.7415974103"><ele>811.49</ele><time>2015-04-19T08:45:07Z</time></trkpt><trkpt lat="46.5713032521" lon="6.7415943090"><ele>810.53</ele><time>2015-04-19T08:45:10Z</time></trkpt><trkpt lat="46.5714827925" lon="6.7415373959"><ele>810.05</ele><time>2015-04-19T08:45:14Z</time></trkpt><trkpt lat="46.5716433898" lon="6.7413120065"><ele>809.09</ele><time>2015-04-19T08:45:18Z</time></trkpt><trkpt lat="46.5715433937" lon="6.7407102697"><ele>806.68</ele><time>2015-04-19T08:45:26Z</time></trkpt><trkpt lat="46.5714214370" lon="6.7405733094"><ele>806.68</ele><time>2015-04-19T08:45:28Z</time></trkpt><trkpt lat="46.5713106282" lon="6.7399631906"><ele>805.72</ele><time>2015-04-19T08:45:35Z</time></trkpt><trkpt lat="46.5713300742" lon="6.7398986500"><ele>805.72</ele><time>2015-04-19T08:45:36Z</time></trkpt><trkpt lat="46.5716412105" lon="6.7392374016"><ele>807.16</ele><time>2015-04-19T08:45:51Z</time></trkpt><trkpt lat="46.5717021469" lon="6.7391179595"><ele>808.61</ele><time>2015-04-19T08:45:56Z</time></trkpt><trkpt lat="46.5716017317" lon="6.7388784885"><ele>815.34</ele><time>2015-04-19T08:46:09Z</time></trkpt><trkpt lat="46.5715586487" lon="6.7387885507"><ele>817.26</ele><time>2015-04-19T08:46:18Z</time></trkpt><trkpt lat="46.5714966226" lon="6.7386775743"><ele>821.10</ele><time>2015-04-19T08:46:30Z</time></trkpt><trkpt lat="46.5713821258" lon="6.7385598086"><ele>825.91</ele><time>2015-04-19T08:46:41Z</time></trkpt><trkpt lat="46.5712606721" lon="6.7384850420"><ele>830.24</ele><time>2015-04-19T08:46:51Z</time></trkpt><trkpt lat="46.5710964706" lon="6.7383037414"><ele>836.00</ele><time>2015-04-19T08:47:05Z</time></trkpt><trkpt lat="46.5709396452" lon="6.7381354328"><ele>836.00</ele><time>2015-04-19T08:47:12Z</time></trkpt><trkpt lat="46.5708048642" lon="6.7378845625"><ele>836.96</ele><time>2015-04-19T08:47:23Z</time></trkpt><trkpt lat="46.5707194526" lon="6.7376097199"><ele>837.93</ele><time>2015-04-19T08:47:36Z</time></trkpt><trkpt lat="46.5705965739" lon="6.7374619469"><ele>840.33</ele><time>2015-04-19T08:47:47Z</time></trkpt><trkpt lat="46.5704818256" lon="6.7373780441"><ele>846.58</ele><time>2015-04-19T08:47:58Z</time></trkpt><trkpt lat="46.5703745373" lon="6.7373251542"><ele>850.42</ele><time>2015-04-19T08:48:05Z</time></trkpt><trkpt lat="46.5702805761" lon="6.7373435106"><ele>851.38</ele><time>2015-04-19T08:48:11Z</time></trkpt><trkpt lat="46.5701088309" lon="6.7375640385"><ele>849.94</ele><time>2015-04-19T08:48:24Z</time></trkpt><trkpt lat="46.5700483136" lon="6.7375871725"><ele>848.02</ele><time>2015-04-19T08:48:27Z</time></trkpt><trkpt lat="46.5700269397" lon="6.7375981528"><ele>847.54</ele><time>2015-04-19T08:48:29Z</time></trkpt><trkpt lat="46.5700128581" lon="6.7375088017"><ele>845.14</ele><time>2015-04-19T08:48:34Z</time></trkpt><trkpt lat="46.5701388381" lon="6.7372891959"><ele>843.21</ele><time>2015-04-19T08:48:48Z</time></trkpt><trkpt lat="46.5701555181" lon="6.7372045387"><ele>844.18</ele><time>2015-04-19T08:48:54Z</time></trkpt><trkpt lat="46.5701294504" lon="6.7372800596"><ele>843.21</ele><time>2015-04-19T08:49:05Z</time></trkpt><trkpt lat="46.5701162070" lon="6.7372819874"><ele>845.14</ele><time>2015-04-19T08:49:27Z</time></trkpt><trkpt lat="46.5701160394" lon="6.7373028584"><ele>835.04</ele><time>2015-04-19T08:49:59Z</time></trkpt><trkpt lat="46.5700819250" lon="6.7372738570"><ele>832.16</ele><time>2015-04-19T08:50:28Z</time></trkpt><trkpt lat="46.5700098407" lon="6.7372497171"><ele>836.48</ele><time>2015-04-19T08:50:52Z</time></trkpt><trkpt lat="46.5700260177" lon="6.7372969911"><ele>836.48</ele><time>2015-04-19T08:51:10Z</time></trkpt><trkpt lat="46.5699985251" lon="6.7373641301"><ele>835.04</ele><time>2015-04-19T08:51:15Z</time></trkpt><trkpt lat="46.5698399395" lon="6.7377056926"><ele>835.52</ele><time>2015-04-19T08:51:29Z</time></trkpt><trkpt lat="46.5695718862" lon="6.7378992308"><ele>842.25</ele><time>2015-04-19T08:51:43Z</time></trkpt><trkpt lat="46.5693720616" lon="6.7378747556"><ele>846.10</ele><time>2015-04-19T08:51:54Z</time></trkpt><trkpt lat="46.5693591535" lon="6.7378614284"><ele>846.58</ele><time>2015-04-19T08:51:55Z</time></trkpt><trkpt lat="46.5691454988" lon="6.7375948839"><ele>851.38</ele><time>2015-04-19T08:52:09Z</time></trkpt><trkpt lat="46.5688534733" lon="6.7372700851"><ele>855.23</ele><time>2015-04-19T08:52:27Z</time></trkpt><trkpt lat="46.5685792174" lon="6.7371052969"><ele>855.71</ele><time>2015-04-19T08:52:41Z</time></trkpt><trkpt lat="46.5683931392" lon="6.7368928157"><ele>856.67</ele><time>2015-04-19T08:52:53Z</time></trkpt><trkpt lat="46.5682146885" lon="6.7366021313"><ele>858.11</ele><time>2015-04-19T08:53:08Z</time></trkpt><trkpt lat="46.5680301189" lon="6.7363265343"><ele>861.48</ele><time>2015-04-19T08:53:22Z</time></trkpt><trkpt lat="46.5679833479" lon="6.7362342495"><ele>861.48</ele><time>2015-04-19T08:53:26Z</time></trkpt><trkpt lat="46.5678938292" lon="6.7359182518"><ele>863.88</ele><time>2015-04-19T08:53:39Z</time></trkpt><trkpt lat="46.5681011137" lon="6.7356905993"><ele>865.80</ele><time>2015-04-19T08:53:53Z</time></trkpt><trkpt lat="46.5685005952" lon="6.7357510328"><ele>862.92</ele><time>2015-04-19T08:54:08Z</time></trkpt><trkpt lat="46.5688444208" lon="6.7358324211"><ele>861.00</ele><time>2015-04-19T08:54:20Z</time></trkpt><trkpt lat="46.5691785235" lon="6.7355307564"><ele>862.44</ele><time>2015-04-19T08:54:33Z</time></trkpt><trkpt lat="46.5694468282" lon="6.7350735236"><ele>859.08</ele><time>2015-04-19T08:54:47Z</time></trkpt><trkpt lat="46.5696360078" lon="6.7346842680"><ele>860.52</ele><time>2015-04-19T08:54:59Z</time></trkpt><trkpt lat="46.5696316492" lon="6.7346257623"><ele>861.48</ele><time>2015-04-19T08:55:09Z</time></trkpt><trkpt lat="46.5696452279" lon="6.7346232478"><ele>861.00</ele><time>2015-04-19T08:55:27Z</time></trkpt><trkpt lat="46.5695574693" lon="6.7345862836"><ele>862.92</ele><time>2015-04-19T08:55:40Z</time></trkpt><trkpt lat="46.5695023164" lon="6.7345088348"><ele>866.29</ele><time>2015-04-19T08:55:52Z</time></trkpt><trkpt lat="46.5694585629" lon="6.7344626505"><ele>868.69</ele><time>2015-04-19T08:55:58Z</time></trkpt><trkpt lat="46.5693825390" lon="6.7343717907"><ele>874.46</ele><time>2015-04-19T08:56:12Z</time></trkpt><trkpt lat="46.5692958701" lon="6.7342830263"><ele>877.82</ele><time>2015-04-19T08:56:24Z</time></trkpt><trkpt lat="46.5692256298" lon="6.7342394404"><ele>879.74</ele><time>2015-04-19T08:56:33Z</time></trkpt><trkpt lat="46.5691239573" lon="6.7341475748"><ele>883.11</ele><time>2015-04-19T08:56:45Z</time></trkpt><trkpt lat="46.5690644458" lon="6.7340384424"><ele>885.99</ele><time>2015-04-19T08:56:56Z</time></trkpt><trkpt lat="46.5688932035" lon="6.7339523602"><ele>888.40</ele><time>2015-04-19T08:57:08Z</time></trkpt><trkpt lat="46.5687882621" lon="6.7338502686"><ele>889.36</ele><time>2015-04-19T08:57:21Z</time></trkpt><trkpt lat="46.5687270742" lon="6.7338729836"><ele>884.55</ele><time>2015-04-19T08:57:55Z</time></trkpt><trkpt lat="46.5686772019" lon="6.7337968759"><ele>887.43</ele><time>2015-04-19T08:58:08Z</time></trkpt><trkpt lat="46.5686403215" lon="6.7337670363"><ele>888.40</ele><time>2015-04-19T08:58:11Z</time></trkpt><trkpt lat="46.5685627889" lon="6.7336984724"><ele>889.84</ele><time>2015-04-19T08:58:17Z</time></trkpt><trkpt lat="46.5685328655" lon="6.7336788587"><ele>889.84</ele><time>2015-04-19T08:58:19Z</time></trkpt><trkpt lat="46.5684562549" lon="6.7335885018"><ele>890.32</ele><time>2015-04-19T08:58:25Z</time></trkpt><trkpt lat="46.5683462843" lon="6.7335196026"><ele>892.24</ele><time>2015-04-19T08:58:32Z</time></trkpt><trkpt lat="46.5681698453" lon="6.7334015016"><ele>895.61</ele><time>2015-04-19T08:58:46Z</time></trkpt><trkpt lat="46.5681010298" lon="6.7333683930"><ele>897.05</ele><time>2015-04-19T08:58:51Z</time></trkpt><trkpt lat="46.5678919014" lon="6.7332829814"><ele>896.09</ele><time>2015-04-19T08:59:04Z</time></trkpt><trkpt lat="46.5678426158" lon="6.7332643736"><ele>895.61</ele><time>2015-04-19T08:59:07Z</time></trkpt><trkpt lat="46.5677036438" lon="6.7332297564"><ele>896.57</ele><time>2015-04-19T08:59:16Z</time></trkpt><trkpt lat="46.5676353313" lon="6.7332429159"><ele>897.53</ele><time>2015-04-19T08:59:20Z</time></trkpt><trkpt lat="46.5676078387" lon="6.7332385574"><ele>897.05</ele><time>2015-04-19T08:59:22Z</time></trkpt><trkpt lat="46.5676454734" lon="6.7331858352"><ele>896.57</ele><time>2015-04-19T08:59:33Z</time></trkpt><trkpt lat="46.5676511731" lon="6.7331854161"><ele>896.09</ele><time>2015-04-19T08:59:34Z</time></trkpt><trkpt lat="46.5675844532" lon="6.7332039401"><ele>895.12</ele><time>2015-04-19T08:59:41Z</time></trkpt><trkpt lat="46.5673951898" lon="6.7331353761"><ele>895.61</ele><time>2015-04-19T08:59:51Z</time></trkpt><trkpt lat="46.5670644399" lon="6.7331233062"><ele>898.49</ele><time>2015-04-19T09:00:02Z</time></trkpt><trkpt lat="46.5664638765" lon="6.7332665529"><ele>893.68</ele><time>2015-04-19T09:00:14Z</time></trkpt><trkpt lat="46.5660104994" lon="6.7331484519"><ele>888.88</ele><time>2015-04-19T09:00:22Z</time></trkpt><trkpt lat="46.5655809268" lon="6.7329151835"><ele>885.99</ele><time>2015-04-19T09:00:30Z</time></trkpt><trkpt lat="46.5646779444" lon="6.7325265147"><ele>881.67</ele><time>2015-04-19T09:00:43Z</time></trkpt><trkpt lat="46.5643817279" lon="6.7323660851"><ele>879.26</ele><time>2015-04-19T09:00:47Z</time></trkpt><trkpt lat="46.5641162731" lon="6.7322102655"><ele>878.30</ele><time>2015-04-19T09:00:51Z</time></trkpt><trkpt lat="46.5635972656" lon="6.7321897298"><ele>874.94</ele><time>2015-04-19T09:00:59Z</time></trkpt><trkpt lat="46.5634340700" lon="6.7321485747"><ele>873.50</ele><time>2015-04-19T09:01:04Z</time></trkpt><trkpt lat="46.5634974372" lon="6.7319525220"><ele>872.05</ele><time>2015-04-19T09:01:13Z</time></trkpt><trkpt lat="46.5634047333" lon="6.7318713851"><ele>871.57</ele><time>2015-04-19T09:01:20Z</time></trkpt><trkpt lat="46.5634139534" lon="6.7317917570"><ele>871.09</ele><time>2015-04-19T09:01:22Z</time></trkpt><trkpt lat="46.5634230059" lon="6.7312367912"><ele>871.57</ele><time>2015-04-19T09:01:36Z</time></trkpt><trkpt lat="46.5631497558" lon="6.7308286764"><ele>872.53</ele><time>2015-04-19T09:01:47Z</time></trkpt><trkpt lat="46.5631165635" lon="6.7307993397"><ele>872.53</ele><time>2015-04-19T09:01:48Z</time></trkpt><trkpt lat="46.5625892580" lon="6.7305740342"><ele>873.98</ele><time>2015-04-19T09:02:01Z</time></trkpt><trkpt lat="46.5620855894" lon="6.7303699348"><ele>874.94</ele><time>2015-04-19T09:02:14Z</time></trkpt><trkpt lat="46.5620119125" lon="6.7302503251"><ele>873.98</ele><time>2015-04-19T09:02:17Z</time></trkpt><trkpt lat="46.5620735195" lon="6.7300366703"><ele>872.53</ele><time>2015-04-19T09:02:22Z</time></trkpt><trkpt lat="46.5625942871" lon="6.7294579837"><ele>867.73</ele><time>2015-04-19T09:02:34Z</time></trkpt><trkpt lat="46.5630333312" lon="6.7291632760"><ele>865.80</ele><time>2015-04-19T09:02:41Z</time></trkpt><trkpt lat="46.5632501710" lon="6.7289701570"><ele>866.29</ele><time>2015-04-19T09:02:45Z</time></trkpt><trkpt lat="46.5635121893" lon="6.7284311168"><ele>865.80</ele><time>2015-04-19T09:02:56Z</time></trkpt><trkpt lat="46.5635775682" lon="6.7282665800"><ele>864.36</ele><time>2015-04-19T09:02:59Z</time></trkpt><trkpt lat="46.5638661571" lon="6.7278829403"><ele>863.88</ele><time>2015-04-19T09:03:11Z</time></trkpt><trkpt lat="46.5639529098" lon="6.7277158052"><ele>861.00</ele><time>2015-04-19T09:03:17Z</time></trkpt><trkpt lat="46.5639945678" lon="6.7276240233"><ele>860.04</ele><time>2015-04-19T09:03:21Z</time></trkpt><trkpt lat="46.5641111601" lon="6.7272047605"><ele>858.59</ele><time>2015-04-19T09:03:33Z</time></trkpt><trkpt lat="46.5641207993" lon="6.7271303292"><ele>858.11</ele><time>2015-04-19T09:03:35Z</time></trkpt><trkpt lat="46.5642502159" lon="6.7268126551"><ele>854.27</ele><time>2015-04-19T09:03:46Z</time></trkpt><trkpt lat="46.5642751940" lon="6.7267678957"><ele>853.79</ele><time>2015-04-19T09:03:47Z</time></trkpt><trkpt lat="46.5643920377" lon="6.7264874373"><ele>850.90</ele><time>2015-04-19T09:03:52Z</time></trkpt><trkpt lat="46.5646040998" lon="6.7260303721"><ele>848.02</ele><time>2015-04-19T09:04:01Z</time></trkpt><trkpt lat="46.5646579117" lon="6.7258976027"><ele>846.58</ele><time>2015-04-19T09:04:06Z</time></trkpt><trkpt lat="46.5647761803" lon="6.7257445492"><ele>845.14</ele><time>2015-04-19T09:04:12Z</time></trkpt><trkpt lat="46.5650130529" lon="6.7255604826"><ele>841.77</ele><time>2015-04-19T09:04:24Z</time></trkpt><trkpt lat="46.5650458261" lon="6.7254904937"><ele>845.62</ele><time>2015-04-19T09:04:43Z</time></trkpt><trkpt lat="46.5650427248" lon="6.7254521046"><ele>851.87</ele><time>2015-04-19T09:05:11Z</time></trkpt><trkpt lat="46.5650734026" lon="6.7254306469"><ele>858.59</ele><time>2015-04-19T09:05:34Z</time></trkpt><trkpt lat="46.5652493387" lon="6.7252345104"><ele>858.59</ele><time>2015-04-19T09:05:43Z</time></trkpt><trkpt lat="46.5653438028" lon="6.7251429800"><ele>856.19</ele><time>2015-04-19T09:05:47Z</time></trkpt><trkpt lat="46.5654160548" lon="6.7250974663"><ele>853.79</ele><time>2015-04-19T09:05:52Z</time></trkpt><trkpt lat="46.5654630773" lon="6.7250024993"><ele>852.83</ele><time>2015-04-19T09:05:56Z</time></trkpt><trkpt lat="46.5656212438" lon="6.7246676423"><ele>852.83</ele><time>2015-04-19T09:06:07Z</time></trkpt><trkpt lat="46.5656515863" lon="6.7244873475"><ele>848.98</ele><time>2015-04-19T09:06:16Z</time></trkpt><trkpt lat="46.5656435397" lon="6.7243746947"><ele>847.06</ele><time>2015-04-19T09:06:28Z</time></trkpt><trkpt lat="46.5656541847" lon="6.7243241519"><ele>843.69</ele><time>2015-04-19T09:06:39Z</time></trkpt><trkpt lat="46.5656634048" lon="6.7242417578"><ele>841.29</ele><time>2015-04-19T09:06:53Z</time></trkpt><trkpt lat="46.5656817611" lon="6.7242222279"><ele>838.41</ele><time>2015-04-19T09:07:04Z</time></trkpt><trkpt lat="46.5657110140" lon="6.7242402490"><ele>840.33</ele><time>2015-04-19T09:07:17Z</time></trkpt><trkpt lat="46.5657358244" lon="6.7242224794"><ele>841.29</ele><time>2015-04-19T09:07:31Z</time></trkpt><trkpt lat="46.5657475591" lon="6.7242150195"><ele>840.81</ele><time>2015-04-19T09:07:33Z</time></trkpt><trkpt lat="46.5657895524" lon="6.7241918854"><ele>839.85</ele><time>2015-04-19T09:07:38Z</time></trkpt><trkpt lat="46.5657991916" lon="6.7241730262"><ele>839.37</ele><time>2015-04-19T09:07:40Z</time></trkpt><trkpt lat="46.5658078250" lon="6.7241440248"><ele>837.45</ele><time>2015-04-19T09:07:43Z</time></trkpt><trkpt lat="46.5657794941" lon="6.7240949068"><ele>836.00</ele><time>2015-04-19T09:07:47Z</time></trkpt><trkpt lat="46.5657603834" lon="6.7240217328"><ele>835.04</ele><time>2015-04-19T09:07:58Z</time></trkpt><trkpt lat="46.5657473076" lon="6.7240066454"><ele>835.04</ele><time>2015-04-19T09:08:00Z</time></trkpt><trkpt lat="46.5657419432" lon="6.7239582818"><ele>836.96</ele><time>2015-04-19T09:08:06Z</time></trkpt><trkpt lat="46.5658006165" lon="6.7238439526"><ele>837.93</ele><time>2015-04-19T09:08:20Z</time></trkpt><trkpt lat="46.5658240858" lon="6.7239004467"><ele>839.85</ele><time>2015-04-19T09:08:41Z</time></trkpt><trkpt lat="46.5658587869" lon="6.7238918971"><ele>838.89</ele><time>2015-04-19T09:09:09Z</time></trkpt><trkpt lat="46.5657953359" lon="6.7238582019"><ele>838.41</ele><time>2015-04-19T09:09:31Z</time></trkpt><trkpt lat="46.5657990240" lon="6.7238601297"><ele>836.00</ele><time>2015-04-19T09:10:00Z</time></trkpt><trkpt lat="46.5655997023" lon="6.7236514203"><ele>839.85</ele><time>2015-04-19T09:10:15Z</time></trkpt><trkpt lat="46.5654275380" lon="6.7233768292"><ele>844.66</ele><time>2015-04-19T09:10:29Z</time></trkpt><trkpt lat="46.5652278811" lon="6.7231511883"><ele>850.90</ele><time>2015-04-19T09:10:43Z</time></trkpt><trkpt lat="46.5651381109" lon="6.7231065128"><ele>852.35</ele><time>2015-04-19T09:10:48Z</time></trkpt><trkpt lat="46.5650392044" lon="6.7230398767"><ele>852.35</ele><time>2015-04-19T09:10:53Z</time></trkpt><trkpt lat="46.5648710635" lon="6.7228924390"><ele>851.38</ele><time>2015-04-19T09:11:03Z</time></trkpt><trkpt lat="46.5645762719" lon="6.7226891778"><ele>850.42</ele><time>2015-04-19T09:11:19Z</time></trkpt><trkpt lat="46.5643044468" lon="6.7225066200"><ele>850.42</ele><time>2015-04-19T09:11:32Z</time></trkpt><trkpt lat="46.5641010180" lon="6.7223332822"><ele>850.42</ele><time>2015-04-19T09:11:43Z</time></trkpt><trkpt lat="46.5639068093" lon="6.7222413328"><ele>845.62</ele><time>2015-04-19T09:11:53Z</time></trkpt><trkpt lat="46.5636376664" lon="6.7221293505"><ele>846.10</ele><time>2015-04-19T09:12:04Z</time></trkpt><trkpt lat="46.5633667633" lon="6.7220057175"><ele>846.10</ele><time>2015-04-19T09:12:16Z</time></trkpt><trkpt lat="46.5631268732" lon="6.7218989320"><ele>846.58</ele><time>2015-04-19T09:12:26Z</time></trkpt><trkpt lat="46.5626439080" lon="6.7215595488"><ele>857.15</ele><time>2015-04-19T09:12:40Z</time></trkpt><trkpt lat="46.5621198714" lon="6.7212324031"><ele>856.67</ele><time>2015-04-19T09:12:58Z</time></trkpt><trkpt lat="46.5617582761" lon="6.7209651042"><ele>856.19</ele><time>2015-04-19T09:13:13Z</time></trkpt><trkpt lat="46.5615431964" lon="6.7206076160"><ele>858.11</ele><time>2015-04-19T09:13:26Z</time></trkpt><trkpt lat="46.5614252631" lon="6.7202539835"><ele>859.56</ele><time>2015-04-19T09:13:39Z</time></trkpt><trkpt lat="46.5612178948" lon="6.7199294362"><ele>862.44</ele><time>2015-04-19T09:13:52Z</time></trkpt><trkpt lat="46.5610226803" lon="6.7196095828"><ele>866.29</ele><time>2015-04-19T09:14:06Z</time></trkpt><trkpt lat="46.5608827025" lon="6.7192826048"><ele>869.65</ele><time>2015-04-19T09:14:20Z</time></trkpt><trkpt lat="46.5607174952" lon="6.7189333308"><ele>874.46</ele><time>2015-04-19T09:14:36Z</time></trkpt><trkpt lat="46.5605770145" lon="6.7184931971"><ele>878.30</ele><time>2015-04-19T09:14:54Z</time></trkpt><trkpt lat="46.5604525432" lon="6.7180277500"><ele>878.78</ele><time>2015-04-19T09:15:10Z</time></trkpt><trkpt lat="46.5603686403" lon="6.7175432760"><ele>880.71</ele><time>2015-04-19T09:15:23Z</time></trkpt><trkpt lat="46.5602953825" lon="6.7168381903"><ele>880.22</ele><time>2015-04-19T09:15:40Z</time></trkpt><trkpt lat="46.5602779482" lon="6.7167038284"><ele>879.74</ele><time>2015-04-19T09:15:44Z</time></trkpt><trkpt lat="46.5602561552" lon="6.7166535370"><ele>879.26</ele><time>2015-04-19T09:15:47Z</time></trkpt><trkpt lat="46.5602605976" lon="6.7166131362"><ele>878.78</ele><time>2015-04-19T09:15:50Z</time></trkpt><trkpt lat="46.5603001602" lon="6.7166097835"><ele>878.30</ele><time>2015-04-19T09:15:53Z</time></trkpt><trkpt lat="46.5603399742" lon="6.7165216897"><ele>877.34</ele><time>2015-04-19T09:15:58Z</time></trkpt><trkpt lat="46.5603947081" lon="6.7164500244"><ele>877.34</ele><time>2015-04-19T09:16:04Z</time></trkpt><trkpt lat="46.5603626892" lon="6.7165426444"><ele>877.34</ele><time>2015-04-19T09:16:08Z</time></trkpt><trkpt lat="46.5599701647" lon="6.7167676985"><ele>877.34</ele><time>2015-04-19T09:16:22Z</time></trkpt><trkpt lat="46.5594379976" lon="6.7167964485"><ele>875.90</ele><time>2015-04-19T09:16:40Z</time></trkpt><trkpt lat="46.5590135381" lon="6.7166745756"><ele>874.94</ele><time>2015-04-19T09:16:51Z</time></trkpt><trkpt lat="46.5585045889" lon="6.7163461726"><ele>870.61</ele><time>2015-04-19T09:16:59Z</time></trkpt><trkpt lat="46.5577154327" lon="6.7165548820"><ele>865.80</ele><time>2015-04-19T09:17:08Z</time></trkpt><trkpt lat="46.5570987761" lon="6.7168562114"><ele>868.21</ele><time>2015-04-19T09:17:17Z</time></trkpt><trkpt lat="46.5570138674" lon="6.7169083469"><ele>869.17</ele><time>2015-04-19T09:17:19Z</time></trkpt><trkpt lat="46.5568483248" lon="6.7172147054"><ele>871.57</ele><time>2015-04-19T09:17:26Z</time></trkpt><trkpt lat="46.5566843748" lon="6.7178636324"><ele>876.86</ele><time>2015-04-19T09:17:42Z</time></trkpt><trkpt lat="46.5563602466" lon="6.7178008519"><ele>880.22</ele><time>2015-04-19T09:17:56Z</time></trkpt><trkpt lat="46.5560289100" lon="6.7176110018"><ele>883.59</ele><time>2015-04-19T09:18:11Z</time></trkpt><trkpt lat="46.5556162689" lon="6.7174298689"><ele>886.47</ele><time>2015-04-19T09:18:29Z</time></trkpt><trkpt lat="46.5555453580" lon="6.7174705211"><ele>886.95</ele><time>2015-04-19T09:18:33Z</time></trkpt><trkpt lat="46.5553172864" lon="6.7178691644"><ele>891.28</ele><time>2015-04-19T09:18:50Z</time></trkpt><trkpt lat="46.5551866125" lon="6.7183717433"><ele>891.28</ele><time>2015-04-19T09:19:05Z</time></trkpt><trkpt lat="46.5551132709" lon="6.7191327363"><ele>888.40</ele><time>2015-04-19T09:19:22Z</time></trkpt><trkpt lat="46.5550351515" lon="6.7201062944"><ele>885.99</ele><time>2015-04-19T09:19:38Z</time></trkpt><trkpt lat="46.5550315473" lon="6.7201723438"><ele>885.99</ele><time>2015-04-19T09:19:39Z</time></trkpt><trkpt lat="46.5549836867" lon="6.7210618313"><ele>887.43</ele><time>2015-04-19T09:19:55Z</time></trkpt><trkpt lat="46.5548783261" lon="6.7220917996"><ele>888.40</ele><time>2015-04-19T09:20:15Z</time></trkpt><trkpt lat="46.5547081735" lon="6.7226113100"><ele>888.40</ele><time>2015-04-19T09:20:24Z</time></trkpt><trkpt lat="46.5544548724" lon="6.7233539466"><ele>888.88</ele><time>2015-04-19T09:20:36Z</time></trkpt><trkpt lat="46.5540996473" lon="6.7243285105"><ele>889.84</ele><time>2015-04-19T09:20:53Z</time></trkpt><trkpt lat="46.5539609268" lon="6.7246511299"><ele>890.32</ele><time>2015-04-19T09:20:59Z</time></trkpt><trkpt lat="46.5538648702" lon="6.7249013297"><ele>890.32</ele><time>2015-04-19T09:21:04Z</time></trkpt><trkpt lat="46.5536824800" lon="6.7248257250"><ele>890.32</ele><time>2015-04-19T09:21:10Z</time></trkpt><trkpt lat="46.5533322841" lon="6.7245070450"><ele>889.84</ele><time>2015-04-19T09:21:24Z</time></trkpt><trkpt lat="46.5530105866" lon="6.7240834236"><ele>886.95</ele><time>2015-04-19T09:21:37Z</time></trkpt><trkpt lat="46.5525966045" lon="6.7234854586"><ele>883.11</ele><time>2015-04-19T09:21:48Z</time></trkpt><trkpt lat="46.5519227833" lon="6.7227605078"><ele>878.78</ele><time>2015-04-19T09:22:01Z</time></trkpt><trkpt lat="46.5516750142" lon="6.7225102242"><ele>877.82</ele><time>2015-04-19T09:22:05Z</time></trkpt><trkpt lat="46.5511415899" lon="6.7215517536"><ele>873.50</ele><time>2015-04-19T09:22:18Z</time></trkpt><trkpt lat="46.5506520029" lon="6.7208464164"><ele>870.61</ele><time>2015-04-19T09:22:29Z</time></trkpt><trkpt lat="46.5505353268" lon="6.7203912791"><ele>870.61</ele><time>2015-04-19T09:22:37Z</time></trkpt><trkpt lat="46.5503675211" lon="6.7197562661"><ele>872.53</ele><time>2015-04-19T09:22:49Z</time></trkpt><trkpt lat="46.5501872264" lon="6.7193146236"><ele>877.34</ele><time>2015-04-19T09:23:00Z</time></trkpt><trkpt lat="46.5499643516" lon="6.7188812792"><ele>876.38</ele><time>2015-04-19T09:23:13Z</time></trkpt><trkpt lat="46.5493918676" lon="6.7180670612"><ele>876.86</ele><time>2015-04-19T09:23:26Z</time></trkpt><trkpt lat="46.5486941580" lon="6.7172026355"><ele>879.26</ele><time>2015-04-19T09:23:37Z</time></trkpt><trkpt lat="46.5486268513" lon="6.7171133682"><ele>879.26</ele><time>2015-04-19T09:23:38Z</time></trkpt><trkpt lat="46.5479041636" lon="6.7167068459"><ele>878.78</ele><time>2015-04-19T09:23:47Z</time></trkpt><trkpt lat="46.5474436618" lon="6.7164648604"><ele>873.98</ele><time>2015-04-19T09:23:52Z</time></trkpt><trkpt lat="46.5470338706" lon="6.7160848249"><ele>868.21</ele><time>2015-04-19T09:23:57Z</time></trkpt><trkpt lat="46.5466305334" lon="6.7158065457"><ele>861.96</ele><time>2015-04-19T09:24:02Z</time></trkpt><trkpt lat="46.5463631507" lon="6.7154407594"><ele>855.23</ele><time>2015-04-19T09:24:07Z</time></trkpt><trkpt lat="46.5462339856" lon="6.7151346523"><ele>852.35</ele><time>2015-04-19T09:24:12Z</time></trkpt><trkpt lat="46.5461793356" lon="6.7148267850"><ele>850.42</ele><time>2015-04-19T09:24:18Z</time></trkpt><trkpt lat="46.5460463148" lon="6.7146013957"><ele>848.50</ele><time>2015-04-19T09:24:24Z</time></trkpt><trkpt lat="46.5459515993" lon="6.7144726496"><ele>846.58</ele><time>2015-04-19T09:24:27Z</time></trkpt><trkpt lat="46.5456920955" lon="6.7143112980"><ele>843.69</ele><time>2015-04-19T09:24:32Z</time></trkpt><trkpt lat="46.5452879202" lon="6.7141934484"><ele>840.33</ele><time>2015-04-19T09:24:38Z</time></trkpt><trkpt lat="46.5448265802" lon="6.7141172569"><ele>836.96</ele><time>2015-04-19T09:24:45Z</time></trkpt><trkpt lat="46.5444731992" lon="6.7136739381"><ele>835.04</ele><time>2015-04-19T09:24:52Z</time></trkpt><trkpt lat="46.5443482250" lon="6.7133506481"><ele>834.56</ele><time>2015-04-19T09:24:56Z</time></trkpt><trkpt lat="46.5439381823" lon="6.7121504433"><ele>836.00</ele><time>2015-04-19T09:25:12Z</time></trkpt><trkpt lat="46.5433405526" lon="6.7108097579"><ele>834.56</ele><time>2015-04-19T09:25:29Z</time></trkpt><trkpt lat="46.5426933020" lon="6.7097609304"><ele>830.72</ele><time>2015-04-19T09:25:42Z</time></trkpt><trkpt lat="46.5426402446" lon="6.7096626945"><ele>830.24</ele><time>2015-04-19T09:25:43Z</time></trkpt><trkpt lat="46.5425206348" lon="6.7092271708"><ele>829.27</ele><time>2015-04-19T09:25:47Z</time></trkpt><trkpt lat="46.5424421802" lon="6.7084553652"><ele>829.76</ele><time>2015-04-19T09:25:55Z</time></trkpt><trkpt lat="46.5422941558" lon="6.7077802029"><ele>834.08</ele><time>2015-04-19T09:26:05Z</time></trkpt><trkpt lat="46.5418982785" lon="6.7068296112"><ele>832.16</ele><time>2015-04-19T09:26:18Z</time></trkpt><trkpt lat="46.5412309114" lon="6.7059136368"><ele>818.22</ele><time>2015-04-19T09:26:28Z</time></trkpt><trkpt lat="46.5409494471" lon="6.7055852339"><ele>809.57</ele><time>2015-04-19T09:26:35Z</time></trkpt><trkpt lat="46.5409206972" lon="6.7055755947"><ele>808.13</ele><time>2015-04-19T09:26:46Z</time></trkpt><trkpt lat="46.5408436675" lon="6.7055389658"><ele>807.16</ele><time>2015-04-19T09:26:50Z</time></trkpt><trkpt lat="46.5407631174" lon="6.7054046039"><ele>807.64</ele><time>2015-04-19T09:26:56Z</time></trkpt><trkpt lat="46.5406932961" lon="6.7054182664"><ele>807.16</ele><time>2015-04-19T09:27:00Z</time></trkpt><trkpt lat="46.5406663902" lon="6.7054172605"><ele>807.16</ele><time>2015-04-19T09:27:02Z</time></trkpt><trkpt lat="46.5406305995" lon="6.7054356169"><ele>807.16</ele><time>2015-04-19T09:27:05Z</time></trkpt><trkpt lat="46.5406067949" lon="6.7055457551"><ele>806.68</ele><time>2015-04-19T09:27:09Z</time></trkpt><trkpt lat="46.5406180266" lon="6.7054724973"><ele>807.16</ele><time>2015-04-19T09:27:19Z</time></trkpt><trkpt lat="46.5406048670" lon="6.7054565717"><ele>807.16</ele><time>2015-04-19T09:27:39Z</time></trkpt><trkpt lat="46.5404312778" lon="6.7054477707"><ele>806.20</ele><time>2015-04-19T09:27:50Z</time></trkpt><trkpt lat="46.5402401704" lon="6.7055115569"><ele>806.20</ele><time>2015-04-19T09:27:57Z</time></trkpt><trkpt lat="46.5399916470" lon="6.7055134848"><ele>805.72</ele><time>2015-04-19T09:28:08Z</time></trkpt><trkpt lat="46.5400020406" lon="6.7055439949"><ele>805.24</ele><time>2015-04-19T09:28:16Z</time></trkpt><trkpt lat="46.5399874561" lon="6.7055293266"><ele>805.24</ele><time>2015-04-19T09:28:17Z</time></trkpt><trkpt lat="46.5399044752" lon="6.7055319250"><ele>806.20</ele><time>2015-04-19T09:28:21Z</time></trkpt><trkpt lat="46.5397457220" lon="6.7055852339"><ele>806.68</ele><time>2015-04-19T09:28:27Z</time></trkpt><trkpt lat="46.5394049976" lon="6.7056418955"><ele>806.20</ele><time>2015-04-19T09:28:37Z</time></trkpt><trkpt lat="46.5389183443" lon="6.7057963740"><ele>804.76</ele><time>2015-04-19T09:28:51Z</time></trkpt><trkpt lat="46.5384497959" lon="6.7059554625"><ele>802.36</ele><time>2015-04-19T09:29:02Z</time></trkpt><trkpt lat="46.5381809883" lon="6.7059733160"><ele>801.88</ele><time>2015-04-19T09:29:09Z</time></trkpt><trkpt lat="46.5375463106" lon="6.7056262214"><ele>798.51</ele><time>2015-04-19T09:29:20Z</time></trkpt><trkpt lat="46.5366230439" lon="6.7047987599"><ele>799.95</ele><time>2015-04-19T09:29:37Z</time></trkpt><trkpt lat="46.5359861869" lon="6.7044555210"><ele>801.40</ele><time>2015-04-19T09:29:49Z</time></trkpt><trkpt lat="46.5357957501" lon="6.7044674233"><ele>803.32</ele><time>2015-04-19T09:29:54Z</time></trkpt><trkpt lat="46.5353959333" lon="6.7047070619"><ele>808.61</ele><time>2015-04-19T09:30:08Z</time></trkpt><trkpt lat="46.5354188997" lon="6.7052288353"><ele>809.57</ele><time>2015-04-19T09:30:20Z</time></trkpt><trkpt lat="46.5352455620" lon="6.7058170773"><ele>808.61</ele><time>2015-04-19T09:30:33Z</time></trkpt><trkpt lat="46.5348963719" lon="6.7060299776"><ele>810.53</ele><time>2015-04-19T09:30:45Z</time></trkpt><trkpt lat="46.5342806373" lon="6.7060089391"><ele>813.41</ele><time>2015-04-19T09:31:03Z</time></trkpt><trkpt lat="46.5338676609" lon="6.7063053232"><ele>813.89</ele><time>2015-04-19T09:31:17Z</time></trkpt><trkpt lat="46.5334956720" lon="6.7065608036"><ele>812.93</ele><time>2015-04-19T09:31:29Z</time></trkpt><trkpt lat="46.5329163987" lon="6.7064946704"><ele>813.41</ele><time>2015-04-19T09:31:43Z</time></trkpt><trkpt lat="46.5324877482" lon="6.7064532638"><ele>815.34</ele><time>2015-04-19T09:31:56Z</time></trkpt><trkpt lat="46.5319883544" lon="6.7064015474"><ele>819.66</ele><time>2015-04-19T09:32:12Z</time></trkpt><trkpt lat="46.5314151160" lon="6.7064763140"><ele>822.06</ele><time>2015-04-19T09:32:29Z</time></trkpt><trkpt lat="46.5308451466" lon="6.7066678405"><ele>823.99</ele><time>2015-04-19T09:32:49Z</time></trkpt><trkpt lat="46.5306362696" lon="6.7067193892"><ele>823.51</ele><time>2015-04-19T09:33:03Z</time></trkpt><trkpt lat="46.5303778555" lon="6.7068123445"><ele>822.55</ele><time>2015-04-19T09:33:18Z</time></trkpt><trkpt lat="46.5300235525" lon="6.7069641408"><ele>821.58</ele><time>2015-04-19T09:33:32Z</time></trkpt><trkpt lat="46.5297186188" lon="6.7070928030"><ele>819.66</ele><time>2015-04-19T09:33:43Z</time></trkpt><trkpt lat="46.5295989253" lon="6.7071405798"><ele>819.18</ele><time>2015-04-19T09:33:49Z</time></trkpt><trkpt lat="46.5295192972" lon="6.7072092276"><ele>818.22</ele><time>2015-04-19T09:33:55Z</time></trkpt><trkpt lat="46.5294112545" lon="6.7075632792"><ele>819.18</ele><time>2015-04-19T09:34:09Z</time></trkpt><trkpt lat="46.5292196441" lon="6.7080008145"><ele>822.55</ele><time>2015-04-19T09:34:23Z</time></trkpt><trkpt lat="46.5290887188" lon="6.7083341628"><ele>824.95</ele><time>2015-04-19T09:34:34Z</time></trkpt><trkpt lat="46.5288855415" lon="6.7088579480"><ele>833.12</ele><time>2015-04-19T09:34:49Z</time></trkpt><trkpt lat="46.5288103558" lon="6.7090667412"><ele>836.96</ele><time>2015-04-19T09:34:56Z</time></trkpt><trkpt lat="46.5287341643" lon="6.7091898713"><ele>839.37</ele><time>2015-04-19T09:35:01Z</time></trkpt><trkpt lat="46.5285221860" lon="6.7097305879"><ele>844.18</ele><time>2015-04-19T09:35:12Z</time></trkpt><trkpt lat="46.5283124708" lon="6.7101068515"><ele>847.06</ele><time>2015-04-19T09:35:24Z</time></trkpt><trkpt lat="46.5282861516" lon="6.7101442348"><ele>847.06</ele><time>2015-04-19T09:35:26Z</time></trkpt><trkpt lat="46.5282757580" lon="6.7101811990"><ele>847.06</ele><time>2015-04-19T09:35:28Z</time></trkpt><trkpt lat="46.5282989759" lon="6.7102977075"><ele>848.02</ele><time>2015-04-19T09:35:33Z</time></trkpt><trkpt lat="46.5285123792" lon="6.7106338218"><ele>847.54</ele><time>2015-04-19T09:35:46Z</time></trkpt><trkpt lat="46.5287762415" lon="6.7110028770"><ele>850.42</ele><time>2015-04-19T09:35:58Z</time></trkpt><trkpt lat="46.5290230885" lon="6.7113945633"><ele>855.71</ele><time>2015-04-19T09:36:10Z</time></trkpt><trkpt lat="46.5293062292" lon="6.7118585855"><ele>859.56</ele><time>2015-04-19T09:36:22Z</time></trkpt><trkpt lat="46.5296714287" lon="6.7122569773"><ele>860.04</ele><time>2015-04-19T09:36:35Z</time></trkpt><trkpt lat="46.5300260670" lon="6.7124971189"><ele>858.59</ele><time>2015-04-19T09:36:47Z</time></trkpt><trkpt lat="46.5304143168" lon="6.7127400264"><ele>854.75</ele><time>2015-04-19T09:37:00Z</time></trkpt><trkpt lat="46.5307014808" lon="6.7130441219"><ele>853.79</ele><time>2015-04-19T09:37:14Z</time></trkpt><trkpt lat="46.5310483240" lon="6.7134857643"><ele>845.14</ele><time>2015-04-19T09:37:26Z</time></trkpt><trkpt lat="46.5315760486" lon="6.7141646985"><ele>837.45</ele><time>2015-04-19T09:37:46Z</time></trkpt><trkpt lat="46.5320311859" lon="6.7148797587"><ele>834.56</ele><time>2015-04-19T09:38:05Z</time></trkpt><trkpt lat="46.5320857521" lon="6.7151020467"><ele>833.60</ele><time>2015-04-19T09:38:09Z</time></trkpt><trkpt lat="46.5320394840" lon="6.7154649831"><ele>832.16</ele><time>2015-04-19T09:38:15Z</time></trkpt><trkpt lat="46.5320236422" lon="6.7158195376"><ele>831.20</ele><time>2015-04-19T09:38:21Z</time></trkpt><trkpt lat="46.5324328467" lon="6.7166993860"><ele>826.87</ele><time>2015-04-19T09:38:34Z</time></trkpt><trkpt lat="46.5325943660" lon="6.7170012183"><ele>826.39</ele><time>2015-04-19T09:38:39Z</time></trkpt><trkpt lat="46.5326962899" lon="6.7175050545"><ele>825.43</ele><time>2015-04-19T09:38:51Z</time></trkpt><trkpt lat="46.5327200945" lon="6.7182393931"><ele>822.06</ele><time>2015-04-19T09:39:05Z</time></trkpt><trkpt lat="46.5327065997" lon="6.7194699403"><ele>814.37</ele><time>2015-04-19T09:39:20Z</time></trkpt><trkpt lat="46.5327197593" lon="6.7196183000"><ele>813.89</ele><time>2015-04-19T09:39:22Z</time></trkpt><trkpt lat="46.5328249522" lon="6.7199795600"><ele>811.01</ele><time>2015-04-19T09:39:28Z</time></trkpt><trkpt lat="46.5330507606" lon="6.7207787745"><ele>807.16</ele><time>2015-04-19T09:39:42Z</time></trkpt><trkpt lat="46.5330937598" lon="6.7208682932"><ele>807.16</ele><time>2015-04-19T09:39:44Z</time></trkpt><trkpt lat="46.5333434567" lon="6.7212131247"><ele>805.72</ele><time>2015-04-19T09:39:53Z</time></trkpt><trkpt lat="46.5332717914" lon="6.7215109337"><ele>804.76</ele><time>2015-04-19T09:40:00Z</time></trkpt><trkpt lat="46.5331356693" lon="6.7216872051"><ele>803.32</ele><time>2015-04-19T09:40:05Z</time></trkpt><trkpt lat="46.5330918320" lon="6.7221381515"><ele>800.92</ele><time>2015-04-19T09:40:16Z</time></trkpt><trkpt lat="46.5332273673" lon="6.7227258068"><ele>801.88</ele><time>2015-04-19T09:40:28Z</time></trkpt><trkpt lat="46.5334948339" lon="6.7233514320"><ele>802.36</ele><time>2015-04-19T09:40:43Z</time></trkpt><trkpt lat="46.5337158646" lon="6.7238015402"><ele>801.88</ele><time>2015-04-19T09:40:56Z</time></trkpt><trkpt lat="46.5339803975" lon="6.7241563462"><ele>801.88</ele><time>2015-04-19T09:41:08Z</time></trkpt><trkpt lat="46.5340021905" lon="6.7241988424"><ele>801.88</ele><time>2015-04-19T09:41:10Z</time></trkpt><trkpt lat="46.5340061300" lon="6.7242504749"><ele>801.40</ele><time>2015-04-19T09:41:12Z</time></trkpt><trkpt lat="46.5339799784" lon="6.7243869323"><ele>800.44</ele><time>2015-04-19T09:41:24Z</time></trkpt><trkpt lat="46.5339578502" lon="6.7244539037"><ele>800.44</ele><time>2015-04-19T09:41:28Z</time></trkpt><trkpt lat="46.5341819823" lon="6.7249503639"><ele>800.44</ele><time>2015-04-19T09:41:41Z</time></trkpt><trkpt lat="46.5345494449" lon="6.7257186491"><ele>798.51</ele><time>2015-04-19T09:41:55Z</time></trkpt><trkpt lat="46.5352676064" lon="6.7265868466"><ele>793.22</ele><time>2015-04-19T09:42:09Z</time></trkpt><trkpt lat="46.5355349053" lon="6.7269445024"><ele>791.30</ele><time>2015-04-19T09:42:14Z</time></trkpt><trkpt lat="46.5356969275" lon="6.7272894178"><ele>790.82</ele><time>2015-04-19T09:42:18Z</time></trkpt><trkpt lat="46.5361039527" lon="6.7286694981"><ele>789.86</ele><time>2015-04-19T09:42:35Z</time></trkpt><trkpt lat="46.5361777134" lon="6.7288010102"><ele>789.86</ele><time>2015-04-19T09:42:37Z</time></trkpt><trkpt lat="46.5367246326" lon="6.7294054292"><ele>794.67</ele><time>2015-04-19T09:42:51Z</time></trkpt><trkpt lat="46.5370210167" lon="6.7300365027"><ele>796.11</ele><time>2015-04-19T09:43:05Z</time></trkpt><trkpt lat="46.5373579692" lon="6.7309168540"><ele>798.51</ele><time>2015-04-19T09:43:24Z</time></trkpt><trkpt lat="46.5378037188" lon="6.7313335184"><ele>799.95</ele><time>2015-04-19T09:43:39Z</time></trkpt><trkpt lat="46.5382443555" lon="6.7315998953"><ele>799.47</ele><time>2015-04-19T09:43:53Z</time></trkpt><trkpt lat="46.5385020152" lon="6.7317987978"><ele>799.47</ele><time>2015-04-19T09:44:02Z</time></trkpt><trkpt lat="46.5387046058" lon="6.7313826364"><ele>799.95</ele><time>2015-04-19T09:44:14Z</time></trkpt><trkpt lat="46.5387095511" lon="6.7313191853"><ele>799.95</ele><time>2015-04-19T09:44:16Z</time></trkpt><trkpt lat="46.5387129039" lon="6.7313037626"><ele>802.84</ele><time>2015-04-19T09:44:28Z</time></trkpt></trkseg></trk></gpx>